Insider Transactions for OSI SYSTEMS INC (OSIS)

Owner Relationship Date Transaction Cost # Shares Value($) Total Shares Form 4
Cegielski Deborah Lee SVP, Chief HR Officer Sep 18, 2019 Option Exercise $104.90 281 29,477 2,979 Sep 19, 2019, 09:11 PM
Thompson Michael Shawn President, OSI Electronics Sep 18, 2019 Option Exercise $104.90 311 32,624 4,385 Sep 19, 2019, 09:09 PM
ALIABADI MANOOCHER M Pres., Optoelectronics Div Sep 18, 2019 Option Exercise $104.90 4,992 523,661 75,748 Sep 19, 2019, 09:07 PM
MEHRA AJAY Executive Vice President Sep 19, 2019 Option Exercise $104.92 1,750 183,610 117,803 Sep 19, 2019, 09:06 PM
MEHRA AJAY Executive Vice President Sep 18, 2019 Option Exercise $104.90 10,250 1,075,225 119,553 Sep 19, 2019, 09:06 PM
SZE VICTOR S General Counsel Sep 18, 2019 Option Exercise $104.90 29,569 3,101,788 168,638 Sep 19, 2019, 09:04 PM
EDRICK ALAN I EVP & CFO Sep 18, 2019 Option Exercise $104.90 34,163 3,583,699 254,283 Sep 19, 2019, 09:03 PM
CHOPRA DEEPAK President and CEO Sep 18, 2019 Option Exercise $104.90 77,412 8,120,519 537,009 Sep 19, 2019, 09:01 PM
SZE VICTOR S General Counsel Sep 11, 2019 Sale $105.05 15,000 1,575,744 30,136 Sep 11, 2019, 08:41 PM
MEHRA AJAY Executive Vice President Sep 05, 2019 Sale $106.52 10,701 1,139,912 113,958 Sep 06, 2019, 06:52 PM
ALIABADI MANOOCHER M Pres., Optoelectronics Div Aug 29, 2019 Option Exercise $105.05 13,309 1,398,110 75,675 Aug 30, 2019, 05:15 PM
ALIABADI MANOOCHER M Pres., Optoelectronics Div Aug 29, 2019 Option Exercise $16.37 25,657 420,005 88,984 Aug 30, 2019, 05:15 PM
SZE VICTOR S General Counsel Aug 28, 2019 Option Exercise $106.38 31,537 3,354,906 188,689 Aug 30, 2019, 05:12 PM
SZE VICTOR S General Counsel Aug 28, 2019 Option Exercise $16.37 55,000 900,350 220,226 Aug 30, 2019, 05:12 PM
SZE VICTOR S General Counsel Aug 29, 2019 Sale $105.80 23,463 2,482,444 165,226 Aug 30, 2019, 05:12 PM
EDRICK ALAN I EVP & CFO Aug 30, 2019 Option Exercise $105.01 34,464 3,619,065 250,342 Aug 30, 2019, 05:11 PM
EDRICK ALAN I EVP & CFO Aug 28, 2019 Option Exercise $16.37 25,000 409,250 249,806 Aug 30, 2019, 05:11 PM
EDRICK ALAN I EVP & CFO Aug 30, 2019 Option Exercise $16.37 60,000 982,200 284,806 Aug 30, 2019, 05:11 PM
EDRICK ALAN I EVP & CFO Aug 28, 2019 Sale $106.21 25,000 2,655,200 224,806 Aug 30, 2019, 05:11 PM
CHOPRA DEEPAK President and CEO Aug 29, 2019 Sale $105.39 16,500 1,738,904 526,475 Aug 30, 2019, 05:09 PM
MEHRA AJAY Executive Vice President Aug 26, 2019 Sale $99.98 2,668 266,759 124,659 Aug 27, 2019, 12:38 PM
MEHRA AJAY Executive Vice President Aug 19, 2019 Option Exercise $104.07 2,120 220,628 127,327 Aug 19, 2019, 11:41 AM
CHOPRA DEEPAK President and CEO Aug 06, 2019 Sale $106.52 6,555 698,239 542,975 Aug 06, 2019, 09:08 PM
CHOPRA DEEPAK President and CEO Aug 05, 2019 Sale $106.52 23,445 2,497,361 549,530 Aug 06, 2019, 09:08 PM
CHOPRA DEEPAK President and CEO Aug 05, 2019 Sale $106.64 5,000 533,200 30,000 Aug 06, 2019, 09:08 PM
Green James W Pres., Spacelabs Healthcare Jul 05, 2019 Option Exercise $116.69 233 27,189 3,831 Jul 08, 2019, 05:41 PM
SZE VICTOR S General Counsel Jul 01, 2019 Option Exercise $61.12 173 10,574 153,577 Jul 03, 2019, 12:43 PM
CHOPRA DEEPAK President and CEO Jul 01, 2019 Option Exercise $61.12 173 10,574 531,556 Jul 03, 2019, 12:42 PM
MEHRA AJAY Executive Vice President Jul 01, 2019 Option Exercise $61.12 173 10,574 129,447 Jul 02, 2019, 08:17 PM
EDRICK ALAN I EVP & CFO Jul 01, 2019 Option Exercise $61.12 173 10,574 211,239 Jul 02, 2019, 08:15 PM
SZE VICTOR S General Counsel May 14, 2019 Sale $104.17 20,000 2,083,400 153,404 May 14, 2019, 09:43 PM
CHOPRA DEEPAK President and CEO May 07, 2019 Sale $102.18 9,355 955,894 531,383 May 07, 2019, 08:22 PM
CHOPRA DEEPAK President and CEO May 06, 2019 Sale $103.17 14,645 1,510,925 540,738 May 07, 2019, 08:22 PM
CHOPRA DEEPAK President and CEO May 06, 2019 Sale $103.12 10,500 1,082,760 0 May 07, 2019, 08:22 PM
EDRICK ALAN I EVP & CFO May 06, 2019 Sale $103.13 10,000 1,031,300 211,066 May 06, 2019, 06:50 PM
MEHRA AJAY Executve Vice President May 02, 2019 Option Exercise $33.62 30,000 1,008,600 159,274 May 03, 2019, 07:19 PM
MEHRA AJAY Executve Vice President May 02, 2019 Sale $100.77 30,000 3,023,100 129,274 May 03, 2019, 07:19 PM
ALIABADI MANOOCHER M Pres., Optoelectronics Div Feb 20, 2019 Sale $87.80 5,000 439,000 60,954 Feb 21, 2019, 08:21 PM
CHOPRA DEEPAK President and CEO Feb 20, 2019 Sale $88.74 6,500 576,810 10,500 Feb 20, 2019, 07:01 PM
CHOPRA DEEPAK President and CEO Feb 20, 2019 Sale $88.62 13,440 1,191,053 555,383 Feb 20, 2019, 07:01 PM
CHOPRA DEEPAK President and CEO Feb 19, 2019 Sale $87.39 24,634 2,152,765 568,823 Feb 20, 2019, 07:01 PM
CHOPRA DEEPAK President and CEO Feb 15, 2019 Sale $87.67 25,000 2,191,750 593,457 Feb 20, 2019, 07:01 PM
SZE VICTOR S General Counsel Feb 12, 2019 Sale $86.27 20,000 1,725,468 173,404 Feb 13, 2019, 06:02 PM
EDRICK ALAN I EVP & CFO Feb 11, 2019 Sale $86.53 10,000 865,320 221,066 Feb 13, 2019, 06:01 PM
MEHRA AJAY Executve Vice President Feb 04, 2019 Option Exercise $16.37 15,000 245,550 157,182 Feb 06, 2019, 06:53 PM
MEHRA AJAY Executve Vice President Feb 04, 2019 Sale $86.83 27,908 2,423,252 129,274 Feb 06, 2019, 06:53 PM
Ballhaus William Francis JR Director Feb 04, 2019 Sale $89.14 675 60,169 17,773 Feb 06, 2019, 06:51 PM
GOOD STEVEN C Director Jan 29, 2019 Sale $87.00 3,500 304,500 15,839 Jan 31, 2019, 05:25 PM
SZE VICTOR S General Counsel Jan 08, 2019 Option Exercise $71.39 15,519 1,107,901 193,404 Jan 09, 2019, 09:42 PM
SZE VICTOR S General Counsel Jan 08, 2019 Option Exercise $12.52 30,000 375,600 208,923 Jan 09, 2019, 09:42 PM
SZE VICTOR S General Counsel Dec 31, 2018 Option Exercise $62.31 160 9,970 178,923 Jan 03, 2019, 08:57 PM
MEHRA AJAY Executve Vice President Dec 31, 2018 Option Exercise $62.31 160 9,970 142,182 Jan 03, 2019, 08:54 PM
EDRICK ALAN I EVP & CFO Dec 31, 2018 Option Exercise $62.31 160 9,970 231,066 Jan 03, 2019, 08:51 PM
CHOPRA DEEPAK President and CEO Dec 31, 2018 Option Exercise $62.31 160 9,970 618,457 Jan 03, 2019, 08:49 PM
GOOD STEVEN C Director Dec 06, 2018 Sale $69.16 1,500 103,740 2,000 Dec 10, 2018, 07:03 PM
GOOD STEVEN C Director Dec 06, 2018 Sale $69.16 3,000 207,480 19,339 Dec 10, 2018, 07:03 PM
EDRICK ALAN I EVP & CFO Dec 03, 2018 Option Exercise $12.52 40,000 500,800 270,906 Dec 03, 2018, 08:23 PM
EDRICK ALAN I EVP & CFO Dec 03, 2018 Sale $72.07 40,000 2,882,800 230,906 Dec 03, 2018, 08:23 PM
CHOPRA DEEPAK President and CEO Nov 23, 2018 Sale $73.06 8,126 593,686 618,297 Nov 26, 2018, 08:17 PM
CHOPRA DEEPAK President and CEO Nov 19, 2018 Sale $73.27 3,800 278,426 626,423 Nov 21, 2018, 04:51 PM
Maginnis Malcolm Peter Pres., Rapiscan Systems Nov 20, 2018 Sale $71.55 552 39,494 7,494 Nov 21, 2018, 04:30 PM
MEHRA AJAY Executve Vice President Sep 19, 2018 Option Exercise $76.08 1,751 133,216 123,811 Sep 19, 2018, 09:13 PM
CHOPRA DEEPAK President and CEO Sep 10, 2018 Sale $74.90 25,000 1,872,500 630,223 Sep 11, 2018, 08:57 PM
GOOD STEVEN C Director Sep 05, 2018 Sale $76.86 1,500 115,290 3,500 Sep 07, 2018, 08:09 PM
GOOD STEVEN C Director Sep 05, 2018 Sale $76.86 3,000 230,580 22,339 Sep 07, 2018, 08:09 PM
SZE VICTOR S General Counsel Sep 04, 2018 Option Exercise $77.89 28,402 2,212,232 178,763 Sep 05, 2018, 09:57 PM
Thompson Michael Shawn President, OSI Electronics Sep 04, 2018 Option Exercise $77.89 134 10,437 2,721 Sep 05, 2018, 09:46 PM
ALIABADI MANOOCHER M Pres., Optoelectronics Div Sep 04, 2018 Option Exercise $77.89 3,376 262,957 65,954 Sep 05, 2018, 09:46 PM
MEHRA AJAY Executve Vice President Sep 04, 2018 Option Exercise $77.89 9,062 705,839 125,562 Sep 05, 2018, 09:45 PM
EDRICK ALAN I EVP & CFO Sep 04, 2018 Option Exercise $77.89 34,109 2,656,750 230,906 Sep 05, 2018, 09:45 PM
CHOPRA DEEPAK President and CEO Sep 04, 2018 Option Exercise $77.89 77,449 6,032,503 655,223 Sep 05, 2018, 09:45 PM
Green James W Pres., Spacelabs Healthcare Aug 28, 2018 Buy $76.65 250 19,163 4,064 Aug 28, 2018, 09:50 PM
MEHRA AJAY Executve Vice President Aug 20, 2018 Option Exercise $77.58 1,607 124,671 122,661 Aug 22, 2018, 07:04 PM
MEHRA AJAY Executve Vice President Aug 15, 2012 Sale $73.54 14,572 1,071,625 124,268 Aug 22, 2018, 07:00 PM
Merritt Richard Edward SVP, Chief HR Officer Jul 24, 2018 Option Exercise $78.40 72 5,645 14,861 Jul 25, 2018, 02:27 PM
SZE VICTOR S General Counsel Jul 13, 2018 Option Exercise $77.26 2,725 210,534 217,794 Jul 13, 2018, 07:50 PM
SZE VICTOR S General Counsel Jul 13, 2018 Option Exercise $20.92 5,000 104,600 220,519 Jul 13, 2018, 07:50 PM
Merritt Richard Edward SVP, Chief HR Officer Jul 02, 2018 Option Exercise $49.51 214 10,595 13,026 Jul 02, 2018, 07:25 PM
SZE VICTOR S General Counsel Jul 02, 2018 Option Exercise $49.51 214 10,595 199,312 Jul 02, 2018, 07:25 PM
MEHRA AJAY Executve Vice President Jul 02, 2018 Option Exercise $49.51 214 10,595 133,226 Jul 02, 2018, 07:25 PM
EDRICK ALAN I EVP & CFO Jul 02, 2018 Option Exercise $49.51 214 10,595 206,426 Jul 02, 2018, 07:24 PM
CHOPRA DEEPAK President and CEO Jul 02, 2018 Option Exercise $49.51 214 10,595 597,438 Jul 02, 2018, 07:23 PM
ALIABADI MANOOCHER M Pres., Optoelectronics Div Feb 06, 2018 Option Exercise $58.22 4,770 277,709 62,174 Feb 08, 2018, 07:14 PM
ALIABADI MANOOCHER M Pres., Optoelectronics Div Feb 06, 2018 Option Exercise $23.18 7,500 173,850 66,944 Feb 08, 2018, 07:14 PM
LUSKIN MEYER/ Director Feb 06, 2018 Buy $56.78 20,000 1,135,700 28,446 Feb 08, 2018, 06:00 PM
ALIABADI MANOOCHER M Pres., Optoelectronics Div Feb 06, 2018 Option Exercise $58.22 4,770 277,709 62,174 Feb 07, 2018, 08:23 PM
ALIABADI MANOOCHER M Pres., Optoelectronics Div Feb 06, 2018 Option Exercise $23.18 7,500 173,850 66,944 Feb 07, 2018, 08:23 PM
EDRICK ALAN I EVP & CFO Feb 07, 2018 Option Exercise $59.92 8,642 517,829 206,212 Feb 07, 2018, 08:18 PM
EDRICK ALAN I EVP & CFO Feb 07, 2018 Option Exercise $23.18 14,000 324,520 214,854 Feb 07, 2018, 08:18 PM
EDRICK ALAN I EVP & CFO Feb 05, 2018 Option Exercise $20.92 10,000 209,200 200,854 Feb 07, 2018, 08:18 PM
Merritt Richard Edward SVP, Chief HR Officer Dec 29, 2017 Option Exercise $49.51 214 10,595 12,812 Jan 03, 2018, 05:27 PM
MEHRA AJAY Executve Vice President Dec 29, 2017 Option Exercise $49.51 214 10,595 133,012 Jan 03, 2018, 05:27 PM
SZE VICTOR S General Counsel Dec 29, 2017 Option Exercise $49.51 214 10,595 199,098 Jan 03, 2018, 05:26 PM
EDRICK ALAN I EVP & CFO Dec 29, 2017 Option Exercise $49.51 214 10,595 190,854 Jan 03, 2018, 05:25 PM
CHOPRA DEEPAK President and CEO Dec 29, 2017 Option Exercise $49.51 214 10,595 597,224 Jan 03, 2018, 12:00 AM
Merritt Richard Edward SVP, Chief HR Officer Oct 30, 2017 Option Exercise $88.10 329 28,985 12,598 Oct 31, 2017, 09:15 PM
ALIABADI MANOOCHER M Pres., Optoelectronics Div Sep 20, 2017 Option Exercise $86.16 3,346 288,291 59,444 Sep 21, 2017, 08:59 PM
Kumar Sujit Shamsunder Pres., Spacelabs Healthcare Sep 20, 2017 Option Exercise $86.16 149 12,838 7,375 Sep 21, 2017, 08:56 PM
Merritt Richard Edward SVP, Chief HR Officer Sep 20, 2017 Option Exercise $86.16 1,432 123,381 12,927 Sep 21, 2017, 08:53 PM
MEHRA AJAY Executve Vice President Sep 20, 2017 Option Exercise $86.16 9,617 828,601 132,798 Sep 21, 2017, 08:48 PM
SZE VICTOR S General Counsel Sep 20, 2017 Option Exercise $86.16 25,565 2,202,680 198,884 Sep 21, 2017, 08:41 PM
EDRICK ALAN I EVP & CFO Sep 20, 2017 Option Exercise $86.16 32,715 2,818,725 190,640 Sep 21, 2017, 08:37 PM
CHOPRA DEEPAK President and CEO Sep 20, 2017 Option Exercise $86.16 81,027 6,981,287 597,010 Sep 21, 2017, 08:34 PM
EDRICK ALAN I EVP & CFO Sep 13, 2017 Option Exercise $82.53 8,292 684,339 188,664 Sep 15, 2017, 08:29 PM
EDRICK ALAN I EVP & CFO Sep 13, 2017 Option Exercise $20.02 13,000 260,260 196,956 Sep 15, 2017, 08:29 PM
CHOPRA DEEPAK President and CEO Sep 13, 2017 Option Exercise $82.53 38,269 3,158,341 582,757 Sep 15, 2017, 08:25 PM
CHOPRA DEEPAK President and CEO Sep 13, 2017 Option Exercise $20.02 60,000 1,201,200 621,026 Sep 15, 2017, 08:25 PM
MEHRA AJAY Executve Vice President Aug 18, 2017 Option Exercise $78.85 1,607 126,712 120,299 Aug 18, 2017, 05:23 PM
Ballhaus William Francis JR Director Dec 15, 2016 Sale $76.12 875 66,605 14,675 Aug 09, 2017, 01:05 PM
Merritt Richard Edward SVP, Chief HR Officer Jul 24, 2017 Option Exercise $78.57 72 5,657 10,256 Jul 25, 2017, 08:21 PM
Merritt Richard Edward SVP, Chief HR Officer Jul 03, 2017 Option Exercise $49.51 214 10,595 10,328 Jul 03, 2017, 06:13 PM
SZE VICTOR S General Counsel Jul 03, 2017 Option Exercise $49.51 214 10,595 174,769 Jul 03, 2017, 06:12 PM
MEHRA AJAY Executve Vice President Jul 03, 2017 Option Exercise $49.51 214 10,595 115,020 Jul 03, 2017, 06:10 PM
EDRICK ALAN I EVP & CFO Jul 03, 2017 Option Exercise $49.51 214 10,595 161,003 Jul 03, 2017, 06:08 PM
CHOPRA DEEPAK President and CEO Jul 03, 2017 Option Exercise $49.51 214 10,595 508,066 Jul 03, 2017, 06:06 PM
EDRICK ALAN I EVP & CFO Mar 14, 2017 Option Exercise $20.02 35,000 700,700 195,789 Mar 16, 2017, 07:58 PM
EDRICK ALAN I EVP & CFO Mar 14, 2017 Sale $73.14 35,000 2,559,900 160,789 Mar 16, 2017, 07:58 PM
Merritt Richard Edward SVP, Chief HR Officer Dec 30, 2016 Option Exercise $49.51 214 10,595 10,114 Jan 03, 2017, 08:01 PM
SZE VICTOR S General Counsel Dec 30, 2016 Option Exercise $49.51 214 10,595 174,555 Jan 03, 2017, 07:58 PM
MEHRA AJAY Executve Vice President Dec 30, 2016 Option Exercise $49.51 214 10,595 114,806 Jan 03, 2017, 07:58 PM
EDRICK ALAN I EVP & CFO Dec 30, 2016 Option Exercise $49.51 214 10,595 160,789 Jan 03, 2017, 07:56 PM
CHOPRA DEEPAK President and CEO Dec 30, 2016 Option Exercise $49.51 214 10,595 507,852 Jan 03, 2017, 07:54 PM
ALIABADI MANOOCHER M Pres., Optoelectronics Div Dec 22, 2016 Sale $75.47 3,538 267,013 55,173 Dec 23, 2016, 05:20 PM
SZE VICTOR S General Counsel Dec 14, 2016 Option Exercise $20.02 24,000 480,480 198,341 Dec 16, 2016, 08:42 PM
SZE VICTOR S General Counsel Dec 15, 2016 Option Exercise $23.18 10,000 231,800 184,341 Dec 16, 2016, 08:42 PM
SZE VICTOR S General Counsel Dec 15, 2016 Sale $75.77 10,000 757,700 174,341 Dec 16, 2016, 08:42 PM
SZE VICTOR S General Counsel Dec 14, 2016 Sale $75.40 24,000 1,809,600 174,341 Dec 16, 2016, 08:42 PM
MEHRA AJAY Executve Vice President Dec 12, 2016 Option Exercise $16.37 25,000 409,250 139,592 Dec 13, 2016, 06:58 PM
MEHRA AJAY Executve Vice President Dec 13, 2016 Option Exercise $16.37 25,000 409,250 139,592 Dec 13, 2016, 06:58 PM
MEHRA AJAY Executve Vice President Dec 09, 2016 Sale $78.09 11,019 860,474 114,592 Dec 13, 2016, 06:58 PM
MEHRA AJAY Executve Vice President Dec 13, 2016 Sale $75.96 25,000 1,899,000 114,592 Dec 13, 2016, 06:58 PM
MEHRA AJAY Executve Vice President Dec 12, 2016 Sale $76.62 25,000 1,915,500 114,592 Dec 13, 2016, 06:58 PM
MEHRA AJAY Executve Vice President Dec 13, 2016 Option Exercise $75.96 25,000 1,899,000 114,592 Dec 13, 2016, 06:31 PM
MEHRA AJAY Executve Vice President Dec 12, 2016 Option Exercise $16.37 25,000 409,250 139,592 Dec 13, 2016, 06:31 PM
MEHRA AJAY Executve Vice President Dec 13, 2016 Option Exercise $16.37 25,000 409,250 139,592 Dec 13, 2016, 06:31 PM
MEHRA AJAY Executve Vice President Dec 12, 2016 Sale $76.62 25,000 1,915,500 114,592 Dec 13, 2016, 06:31 PM
MEHRA AJAY Executve Vice President Dec 09, 2016 Sale $78.09 11,019 860,474 114,592 Dec 13, 2016, 06:31 PM
GOOD STEVEN C Director Dec 07, 2016 Sale $76.45 4,000 305,800 19,725 Dec 09, 2016, 08:06 PM
CHOPRA DEEPAK President and CEO Dec 07, 2016 Sale $75.91 50,000 3,795,500 507,638 Dec 09, 2016, 07:15 PM
CHOPRA DEEPAK President and CEO Dec 07, 2016 Sale $75.71 5,000 378,550 35,000 Dec 09, 2016, 07:15 PM
Merritt Richard Edward SVP, Chief HR Officer Oct 31, 2016 Option Exercise $72.26 329 23,774 9,900 Oct 31, 2016, 07:30 PM
ALIABADI MANOOCHER M Pres., Optoelectronics Div Oct 24, 2016 Option Exercise $66.25 1,389 92,021 58,711 Oct 25, 2016, 07:49 PM
Morben Paul Keith Pres., OSI Electronics Oct 24, 2016 Option Exercise $66.25 1,053 69,761 12,645 Oct 25, 2016, 07:45 PM
CHOPRA DEEPAK President and CEO Oct 21, 2016 Option Exercise $66.22 66,676 4,415,285 557,638 Oct 21, 2016, 06:10 PM
EDRICK ALAN I EVP & CFO Oct 21, 2016 Option Exercise $66.22 30,914 2,047,125 160,575 Oct 21, 2016, 06:06 PM
MEHRA AJAY Executve Vice President Oct 21, 2016 Option Exercise $66.22 7,420 491,352 125,611 Oct 21, 2016, 06:00 PM
SZE VICTOR S General Counsel Oct 21, 2016 Option Exercise $66.22 22,425 1,484,984 174,341 Oct 21, 2016, 05:57 PM
GOOD STEVEN C Director Sep 15, 2016 Sale $63.35 3,000 190,050 23,725 Sep 16, 2016, 08:02 PM
Merritt Richard Edward SVP, Chief HR Officer Jul 25, 2016 Option Exercise $59.42 72 4,278 7,860 Jul 26, 2016, 09:31 PM
Merritt Richard Edward SVP, Chief HR Officer Jun 30, 2016 Option Exercise $49.41 152 7,510 7,932 Jul 01, 2016, 06:33 PM
SZE VICTOR S General Counsel Jun 30, 2016 Option Exercise $49.41 201 9,931 144,201 Jul 01, 2016, 06:31 PM
MEHRA AJAY Executve Vice President Jun 30, 2016 Option Exercise $49.41 201 9,931 101,499 Jul 01, 2016, 06:30 PM
EDRICK ALAN I EVP & CFO Jun 30, 2016 Option Exercise $49.41 201 9,931 127,130 Jul 01, 2016, 06:29 PM
CHOPRA DEEPAK President and CEO Jun 30, 2016 Option Exercise $49.41 201 9,931 481,244 Jul 01, 2016, 06:28 PM
Morben Paul Keith Pres., OSI Electronics Feb 10, 2016 Option Exercise $54.69 84 4,594 12,398 Feb 12, 2016, 08:07 PM
Ong Chee Cheong Nicholas Pres., Spacelabs Healthcare Feb 10, 2016 Option Exercise $54.69 82 4,485 57,112 Feb 12, 2016, 08:05 PM
Ong Chee Cheong Nicholas Pres., Spacelabs Healthcare Dec 31, 2015 Option Exercise $52.79 201 10,611 57,194 Jan 05, 2016, 09:56 PM
Merritt Richard Edward SVP, Chief HR Officer Dec 31, 2015 Option Exercise $52.79 199 10,505 7,780 Jan 05, 2016, 09:53 PM
SZE VICTOR S General Counsel Dec 31, 2015 Option Exercise $52.79 201 10,611 144,000 Jan 05, 2016, 09:50 PM
MEHRA AJAY Executve Vice President Dec 31, 2015 Option Exercise $52.79 201 10,611 101,298 Jan 05, 2016, 09:48 PM
EDRICK ALAN I EVP & CFO Dec 31, 2015 Option Exercise $52.79 201 10,611 126,929 Jan 05, 2016, 09:45 PM
CHOPRA DEEPAK President and CEO Dec 31, 2015 Option Exercise $52.79 201 10,611 481,043 Jan 05, 2016, 09:45 PM
HAWKINS JAMES B Director Dec 11, 2015 Option Exercise $89.87 980 88,073 980 Dec 14, 2015, 08:33 PM
Ong Chee Cheong Nicholas Pres., Spacelabs Healthcare Nov 30, 2015 Sale $93.63 2,000 187,260 59,993 Dec 04, 2015, 04:26 PM
Ong Chee Cheong Nicholas Pres., Spacelabs Healthcare Dec 01, 2015 Sale $94.67 3,000 284,010 56,993 Dec 04, 2015, 04:26 PM
Ong Chee Cheong Nicholas Pres., Spacelabs Healthcare Dec 01, 2015 Sale $94.67 3,000 284,010 56,993 Dec 02, 2015, 08:40 PM
Ong Chee Cheong Nicholas Pres., Spacelabs Healthcare Nov 30, 2015 Sale $93.63 2,000 187,260 59,993 Dec 02, 2015, 08:40 PM
ALIABADI MANOOCHER M Pres., Optoelectronics Div Nov 27, 2015 Sale $93.82 5,000 469,100 56,683 Nov 27, 2015, 06:18 PM
SZE VICTOR S General Counsel Nov 24, 2015 Sale $94.35 10,000 943,500 143,799 Nov 27, 2015, 06:16 PM
CHOPRA DEEPAK President and CEO Nov 25, 2015 Sale $94.23 36,944 3,481,233 480,842 Nov 27, 2015, 06:15 PM
CHOPRA DEEPAK President and CEO Nov 25, 2015 Sale $94.18 2,000 188,360 10,000 Nov 27, 2015, 06:15 PM
CHOPRA DEEPAK President and CEO Nov 25, 2015 Sale $94.31 3,000 282,930 17,000 Nov 27, 2015, 06:15 PM
CHOPRA DEEPAK President and CEO Nov 25, 2015 Sale $94.30 5,000 471,500 40,000 Nov 27, 2015, 06:15 PM
MEHRA AJAY Executve Vice President Nov 20, 2015 Option Exercise $18.64 35,000 652,400 141,149 Nov 20, 2015, 08:15 PM
MEHRA AJAY Executve Vice President Nov 20, 2015 Sale $95.61 40,052 3,829,372 101,097 Nov 20, 2015, 08:15 PM
EDRICK ALAN I EVP & CFO Nov 19, 2015 Sale $92.80 11,895 1,103,856 131,728 Nov 20, 2015, 08:09 PM
EDRICK ALAN I EVP & CFO Nov 18, 2015 Sale $87.61 18,105 1,586,179 143,623 Nov 20, 2015, 08:09 PM
EDRICK ALAN I EVP & CFO Nov 20, 2015 Sale $95.51 5,000 477,550 126,728 Nov 20, 2015, 08:09 PM
Merritt Richard Edward SVP, Chief HR Officer Oct 29, 2015 Option Exercise $85.44 329 28,110 7,581 Oct 30, 2015, 08:43 PM
GOOD STEVEN C Director Sep 25, 2015 Sale $78.14 2,500 195,350 21,125 Sep 25, 2015, 09:05 PM
Ong Chee Cheong Nicholas Pres., Spacelabs Healthcare Sep 17, 2015 Option Exercise $14.63 22,000 321,760 93,703 Sep 18, 2015, 08:53 PM
Ong Chee Cheong Nicholas Pres., Spacelabs Healthcare Dec 19, 2014 Buy $71.70 1,000 71,700 79,529 Sep 18, 2015, 08:53 PM
Ong Chee Cheong Nicholas Pres., Spacelabs Healthcare Aug 07, 2015 Buy $67.00 1,000 67,000 73,703 Sep 18, 2015, 08:53 PM
Ong Chee Cheong Nicholas Pres., Spacelabs Healthcare Dec 19, 2014 Sale $71.85 2,000 143,700 77,529 Sep 18, 2015, 08:53 PM
Ong Chee Cheong Nicholas Pres., Spacelabs Healthcare Sep 08, 2015 Sale $74.45 1,000 74,450 72,703 Sep 18, 2015, 08:53 PM
Ong Chee Cheong Nicholas Pres., Spacelabs Healthcare Jun 08, 2015 Sale $72.43 3,826 277,098 72,703 Sep 18, 2015, 08:53 PM
Ong Chee Cheong Nicholas Pres., Spacelabs Healthcare Dec 24, 2014 Sale $72.20 1,000 72,200 76,529 Sep 18, 2015, 08:53 PM
Ong Chee Cheong Nicholas Pres., Spacelabs Healthcare Sep 17, 2015 Sale $78.83 32,710 2,578,646 71,703 Sep 18, 2015, 08:53 PM
MEHRA AJAY Executve Vice President Sep 16, 2015 Option Exercise $76.04 12,419 944,341 157,461 Sep 18, 2015, 08:52 PM
MEHRA AJAY Executve Vice President Sep 17, 2015 Option Exercise $23.18 9,000 208,620 152,182 Sep 18, 2015, 08:52 PM
MEHRA AJAY Executve Vice President Sep 16, 2015 Sale $77.23 10,000 772,300 169,880 Sep 18, 2015, 08:52 PM
MEHRA AJAY Executve Vice President Sep 17, 2015 Sale $78.47 23,279 1,826,703 143,182 Sep 18, 2015, 08:52 PM
Morben Paul Keith Pres., OSI Electronics Sep 17, 2015 Sale $78.84 2,956 233,042 12,482 Sep 17, 2015, 09:04 PM
CHOPRA DEEPAK President and CEO Sep 16, 2015 Sale $77.29 60,000 4,637,280 517,786 Sep 17, 2015, 07:19 PM
Merritt Richard Edward SVP, Chief HR Officer Sep 14, 2015 Option Exercise $74.99 221 16,573 7,910 Sep 15, 2015, 06:58 PM
Morben Paul Keith Pres., OSI Electronics Sep 14, 2015 Option Exercise $74.99 1,784 133,782 15,438 Sep 15, 2015, 06:57 PM
Ong Chee Cheong Nicholas Pres., Spacelabs Healthcare Sep 14, 2015 Option Exercise $74.99 3,976 298,160 76,529 Sep 15, 2015, 06:57 PM
ALIABADI MANOOCHER M Pres., Optoelectronics Div Sep 14, 2015 Option Exercise $74.99 2,596 194,674 61,638 Sep 15, 2015, 06:57 PM
SZE VICTOR S General Counsel Sep 14, 2015 Option Exercise $74.99 23,681 1,775,838 153,799 Sep 15, 2015, 06:57 PM
MEHRA AJAY Executve Vice President Sep 14, 2015 Option Exercise $74.99 10,070 755,149 179,880 Sep 15, 2015, 06:56 PM
EDRICK ALAN I EVP & CFO Sep 14, 2015 Option Exercise $74.99 35,524 2,663,945 161,728 Sep 15, 2015, 06:56 PM
CHOPRA DEEPAK President and CEO Sep 14, 2015 Option Exercise $74.99 72,734 5,454,323 577,786 Sep 15, 2015, 06:56 PM
Ong Chee Cheong Nicholas Pres., Spacelabs Healthcare Sep 09, 2015 Option Exercise $74.66 274 20,457 78,819 Sep 09, 2015, 09:48 PM
ALIABADI MANOOCHER M Pres., Optoelectronics Div Sep 09, 2015 Option Exercise $74.66 752 56,144 66,176 Sep 09, 2015, 09:47 PM
SZE VICTOR S General Counsel Sep 09, 2015 Option Exercise $74.66 940 70,180 151,567 Sep 09, 2015, 09:46 PM
MEHRA AJAY Executve Vice President Sep 09, 2015 Option Exercise $74.66 1,410 105,271 179,522 Sep 09, 2015, 09:45 PM
EDRICK ALAN I EVP & CFO Sep 09, 2015 Option Exercise $74.66 1,410 105,271 160,490 Sep 09, 2015, 09:45 PM
CHOPRA DEEPAK President and CEO Sep 09, 2015 Option Exercise $74.66 3,665 273,629 576,120 Sep 09, 2015, 09:44 PM
SZE VICTOR S General Counsel Sep 03, 2015 Sale $73.58 20,000 1,471,600 152,507 Sep 03, 2015, 09:31 PM
Merritt Richard Edward SVP, Chief HR Officer Jul 24, 2015 Option Exercise $69.98 71 4,969 7,543 Jul 28, 2015, 04:35 PM
Ong Chee Cheong Nicholas Pres., Spacelabs Healthcare Jul 01, 2015 Option Exercise $52.79 201 10,611 74,093 Jul 02, 2015, 08:22 PM
Merritt Richard Edward SVP, Chief HR Officer Jul 01, 2015 Option Exercise $52.79 142 7,496 5,614 Jul 02, 2015, 08:22 PM
SZE VICTOR S General Counsel Jul 01, 2015 Option Exercise $52.79 201 10,611 150,007 Jul 02, 2015, 08:19 PM
MEHRA AJAY Executve Vice President Jul 01, 2015 Option Exercise $52.79 201 10,611 173,132 Jul 02, 2015, 08:18 PM
CHOPRA DEEPAK President and CEO Jul 01, 2015 Option Exercise $52.79 201 10,611 519,785 Jul 02, 2015, 08:17 PM
EDRICK ALAN I EVP & CFO Jul 01, 2015 Option Exercise $52.79 201 10,611 135,900 Jul 02, 2015, 08:16 PM
CHOPRA DEEPAK President and CEO Jun 18, 2015 Sale $73.88 10,000 738,800 519,584 Jun 18, 2015, 07:44 PM
CHOPRA DEEPAK President and CEO Jun 18, 2015 Sale $73.88 2,500 184,700 45,000 Jun 18, 2015, 07:44 PM
EDRICK ALAN I EVP & CFO Jun 11, 2015 Sale $73.06 20,000 1,461,200 135,699 Jun 12, 2015, 06:24 PM
MEHRA AJAY Executve Vice President May 21, 2015 Option Exercise $20.02 7,000 140,140 179,931 May 21, 2015, 08:55 PM
MEHRA AJAY Executve Vice President May 20, 2015 Sale $71.87 15,461 1,111,182 172,931 May 21, 2015, 08:55 PM
MEHRA AJAY Executve Vice President May 21, 2015 Sale $71.87 7,000 503,090 172,931 May 21, 2015, 08:55 PM
CHOPRA DEEPAK President and CEO May 18, 2015 Sale $71.43 2,500 178,575 47,500 May 18, 2015, 07:31 PM
CHOPRA DEEPAK President and CEO May 18, 2015 Sale $71.43 10,000 714,300 529,584 May 18, 2015, 07:31 PM
GOOD STEVEN C Director May 04, 2015 Sale $68.00 3,000 204,000 18,825 May 04, 2015, 07:34 PM
CHOPRA DEEPAK President and CEO Apr 17, 2015 Sale $74.99 2,500 187,475 50,000 Apr 17, 2015, 09:13 PM
CHOPRA DEEPAK President and CEO Apr 17, 2015 Sale $74.99 10,000 749,900 539,584 Apr 17, 2015, 09:13 PM
CHOPRA DEEPAK President and CEO Mar 16, 2015 Sale $73.05 2,500 182,625 52,500 Mar 17, 2015, 07:14 PM
CHOPRA DEEPAK President and CEO Mar 16, 2015 Sale $73.05 10,000 730,500 549,584 Mar 17, 2015, 07:14 PM
ALIABADI MANOOCHER M Pres., Optoelectronics Div Feb 25, 2015 Sale $71.97 5,000 359,850 61,928 Feb 27, 2015, 07:27 PM
Ong Chee Cheong Nicholas Pres., Spacelabs Healthcare Feb 10, 2015 Option Exercise $70.73 82 5,800 73,892 Feb 12, 2015, 08:46 PM
Morben Paul Keith Pres., OSI Electronics Feb 10, 2015 Option Exercise $70.73 84 5,941 12,482 Feb 12, 2015, 08:28 PM
GOOD STEVEN C Director Feb 03, 2015 Sale $69.90 3,900 272,610 21,825 Feb 04, 2015, 08:53 PM
Morben Paul Keith Pres, OSI Electronics Jan 28, 2015 Option Exercise $71.62 30 2,149 12,566 Jan 30, 2015, 08:21 PM
Merritt Richard Edward SVP, Chief Human Resouce Offic Dec 31, 2014 Option Exercise $52.79 76 4,012 5,472 Jan 06, 2015, 08:59 PM
Ong Chee Cheong Nicholas Pres, Spacelabs Healthcare Dec 31, 2014 Option Exercise $52.79 178 9,397 73,974 Jan 06, 2015, 08:57 PM
SZE VICTOR S General Counsel Dec 31, 2014 Option Exercise $52.79 127 6,704 149,806 Jan 06, 2015, 08:54 PM
MEHRA AJAY Executive Vice President Dec 31, 2014 Option Exercise $52.79 184 9,713 188,392 Jan 06, 2015, 08:51 PM
EDRICK ALAN I Exec Vice Pres and CFO Dec 31, 2014 Option Exercise $52.79 201 10,611 155,699 Jan 06, 2015, 08:47 PM
CHOPRA DEEPAK President and CEO Dec 31, 2014 Option Exercise $52.79 201 10,611 559,584 Jan 06, 2015, 08:45 PM
CHOPRA DEEPAK President and CEO Dec 12, 2014 Sale $69.65 10,000 696,500 55,000 Dec 15, 2014, 08:42 PM
CHOPRA DEEPAK President and CEO Dec 12, 2014 Sale $69.87 5,000 349,350 12,000 Dec 15, 2014, 08:42 PM
CHOPRA DEEPAK President and CEO Dec 12, 2014 Sale $70.18 30,000 2,105,400 571,383 Dec 15, 2014, 08:42 PM
CHOPRA DEEPAK President and CEO Dec 15, 2014 Sale $68.33 12,000 819,960 559,383 Dec 15, 2014, 08:42 PM
CHOPRA DEEPAK President and CEO Dec 12, 2014 Sale $69.24 5,000 346,200 20,000 Dec 15, 2014, 08:42 PM
EDRICK ALAN I Exec Vice Pres and CFO Dec 11, 2014 Sale $73.32 13,594 996,712 155,498 Dec 15, 2014, 05:08 PM
CHOPRA DEEPAK President and CEO Nov 17, 2014 Sale $68.57 12,000 822,840 601,383 Nov 18, 2014, 06:40 PM
MEHRA AJAY Executive Vice President Oct 29, 2014 Sale $69.07 30,000 2,072,070 188,208 Oct 31, 2014, 04:44 PM
CHOPRA DEEPAK President and CEO Dec 27, 2012 Option Exercise $63.81 17,000 1,084,770 613,383 Oct 17, 2014, 03:38 PM
CHOPRA DEEPAK President and CEO Oct 15, 2014 Sale $60.69 12,000 728,280 630,383 Oct 17, 2014, 03:38 PM
SZE VICTOR S General Counsel Sep 30, 2014 Option Exercise $53.96 194 10,468 149,679 Oct 01, 2014, 09:32 PM
MEHRA AJAY Executive Vice President Sep 30, 2014 Option Exercise $53.96 194 10,468 218,208 Oct 01, 2014, 09:31 PM
EDRICK ALAN I Exec Vice Pres and CFO Sep 30, 2014 Option Exercise $53.96 194 10,468 169,092 Oct 01, 2014, 09:09 PM
ALIABADI MANOOCHER M Pres., Optoelectronics Div Sep 26, 2014 Option Exercise $63.52 798 50,689 66,928 Sep 26, 2014, 07:50 PM
SZE VICTOR S General Counsel Sep 26, 2014 Option Exercise $63.52 9,712 616,906 149,485 Sep 26, 2014, 07:48 PM
MEHRA AJAY Executive Vice President Sep 26, 2014 Option Exercise $63.52 15,781 1,002,409 226,250 Sep 26, 2014, 07:46 PM
MEHRA AJAY Executive Vice President Sep 26, 2014 Option Exercise $63.52 15,902 1,010,095 218,044 Sep 26, 2014, 07:46 PM
EDRICK ALAN I Exec Vice Pres and CFO Sep 26, 2014 Option Exercise $63.52 15,516 985,576 168,898 Sep 26, 2014, 07:45 PM
CHOPRA DEEPAK President and CEO Sep 26, 2014 Option Exercise $63.52 30,057 1,909,221 642,383 Sep 26, 2014, 07:42 PM
CHOPRA DEEPAK President and CEO Sep 25, 2014 Sale $62.91 12,000 754,920 641,840 Sep 26, 2014, 07:42 PM
ALIABADI MANOOCHER M Pres., Optoelectronics Div Sep 12, 2014 Sale $66.31 2,000 132,620 66,809 Sep 12, 2014, 06:49 PM
Ballhaus William Francis JR Director Sep 10, 2014 Sale $66.68 875 58,345 14,525 Sep 11, 2014, 08:51 PM
GOOD STEVEN C Director Sep 09, 2014 Sale $68.72 3,250 223,340 25,725 Sep 09, 2014, 08:44 PM
ALIABADI MANOOCHER M Pres., Optoelectronics Div Sep 09, 2014 Option Exercise $68.85 752 51,775 68,809 Sep 09, 2014, 08:02 PM
SZE VICTOR S General Counsel Sep 09, 2014 Option Exercise $68.85 940 64,719 148,440 Sep 09, 2014, 08:00 PM
MEHRA AJAY Executive Vice President Sep 09, 2014 Option Exercise $68.85 1,410 97,078 218,135 Sep 09, 2014, 07:58 PM
EDRICK ALAN I Exec Vice Pres and CFO Sep 09, 2014 Option Exercise $68.85 1,410 97,078 168,633 Sep 09, 2014, 07:56 PM
CHOPRA DEEPAK President and CEO Sep 09, 2014 Option Exercise $68.85 5,088 350,309 653,840 Sep 09, 2014, 07:53 PM
GOOD STEVEN C Director Sep 02, 2014 Option Exercise $68.07 750 51,052 28,975 Sep 04, 2014, 06:58 PM
ALIABADI MANOOCHER M Pres., Optoelectronics Div Aug 11, 2014 Option Exercise $67.16 1,690 113,500 69,561 Aug 12, 2014, 09:08 PM
SZE VICTOR S General Counsel Aug 11, 2014 Option Exercise $67.16 1,903 127,805 149,380 Aug 12, 2014, 09:06 PM
MEHRA AJAY Executive Vice President Aug 11, 2014 Option Exercise $67.16 3,758 252,387 219,545 Aug 12, 2014, 09:03 PM
EDRICK ALAN I Exec Vice Pres and CFO Aug 11, 2014 Option Exercise $67.16 2,819 189,324 170,043 Aug 12, 2014, 09:02 PM
CHOPRA DEEPAK President and CEO Aug 11, 2014 Option Exercise $67.16 7,284 489,193 658,928 Aug 12, 2014, 09:01 PM
ALIABADI MANOOCHER M Pres., Optoelectronics Div Sep 16, 2013 Option Exercise $73.73 565 41,657 66,251 Sep 18, 2013, 08:25 PM
SZE VICTOR S General Counsel Sep 16, 2013 Option Exercise $73.73 8,159 601,563 130,283 Sep 18, 2013, 08:25 PM
MEHRA AJAY Executive Vice President Sep 16, 2013 Option Exercise $73.73 12,785 942,638 200,303 Sep 18, 2013, 08:24 PM
EDRICK ALAN I Exec Vice Pres and CFO Sep 16, 2013 Option Exercise $73.73 12,785 942,638 144,862 Sep 18, 2013, 08:23 PM
CHOPRA DEEPAK President and CEO Sep 16, 2013 Option Exercise $73.73 24,265 1,789,059 606,212 Sep 18, 2013, 08:23 PM
ALIABADI MANOOCHER M Pres., Optoelectronics Div Sep 09, 2013 Option Exercise $72.07 752 54,197 65,316 Sep 10, 2013, 09:15 PM
SZE VICTOR S General Counsel Sep 09, 2013 Option Exercise $72.07 940 67,746 122,192 Sep 10, 2013, 09:14 PM
MEHRA AJAY Executive Vice President Sep 09, 2013 Option Exercise $72.07 1,957 141,041 188,588 Sep 10, 2013, 09:13 PM
EDRICK ALAN I Exec Vice Pres and CFO Sep 09, 2013 Option Exercise $72.07 1,881 135,564 133,147 Sep 10, 2013, 09:12 PM
CHOPRA DEEPAK President and CEO Sep 09, 2013 Option Exercise $72.07 5,088 366,692 583,977 Sep 10, 2013, 09:10 PM
ALIABADI MANOOCHER M Pres., Optoelectronics Div Sep 03, 2013 Option Exercise $72.70 705 51,253 66,068 Sep 04, 2013, 07:31 PM
SZE VICTOR S General Counsel Sep 03, 2013 Option Exercise $72.70 940 68,338 123,132 Sep 04, 2013, 07:02 PM
MEHRA AJAY Executive Vice President Sep 03, 2013 Option Exercise $72.70 1,704 123,881 190,545 Sep 04, 2013, 07:02 PM
EDRICK ALAN I Exec Vice Pres and CFO Sep 03, 2013 Option Exercise $72.70 1,410 102,507 135,028 Sep 04, 2013, 06:59 PM
CHOPRA DEEPAK President and CEO Sep 03, 2013 Option Exercise $72.70 7,827 569,023 589,065 Sep 04, 2013, 06:48 PM
ALIABADI MANOOCHER M Pres., Optoelectronics Div Aug 28, 2013 Sale $70.75 1,400 99,050 66,773 Aug 30, 2013, 06:28 PM
EDRICK ALAN I Exec Vice Pres and CFO Aug 12, 2013 Option Exercise $73.67 2,819 207,676 106,534 Aug 12, 2013, 09:25 PM
ALIABADI MANOOCHER M Pres., Optoelectronics Div Aug 12, 2013 Option Exercise $73.67 1,689 124,429 62,896 Aug 12, 2013, 09:23 PM
MEHRA AJAY Executive Vice President Aug 12, 2013 Option Exercise $73.67 3,758 276,852 162,345 Aug 12, 2013, 09:21 PM
SZE VICTOR S General Counsel Aug 12, 2013 Option Exercise $73.67 1,903 140,194 102,789 Aug 12, 2013, 09:18 PM
CHOPRA DEEPAK President and CEO Aug 12, 2013 Option Exercise $73.67 8,021 590,907 536,892 Aug 12, 2013, 09:16 PM
SZE VICTOR S General Counsel Jul 01, 2013 Option Exercise $54.76 191 10,459 104,693 Jul 01, 2013, 07:30 PM
MEHRA AJAY Executive Vice President Jul 01, 2013 Option Exercise $54.76 191 10,459 166,103 Jul 01, 2013, 07:29 PM
EDRICK ALAN I Exec Vice Pres and CFO Jul 01, 2013 Option Exercise $54.76 191 10,459 109,353 Jul 01, 2013, 07:28 PM
ALIABADI MANOOCHER M Pres., Optoelectronics Div Apr 26, 2013 Sale $56.43 1,000 56,430 64,585 Apr 26, 2013, 07:55 PM
MEHRA AJAY Executive Vice President Feb 05, 2013 Option Exercise $54.95 1,000 54,950 165,912 Feb 05, 2013, 09:37 PM
LUSKIN MEYER/ Director Feb 05, 2013 Option Exercise $22.36 5,000 111,800 39,235 Feb 05, 2013, 09:35 PM
SZE VICTOR S General Counsel Feb 05, 2013 Option Exercise $54.95 778 42,751 104,502 Feb 05, 2013, 09:28 PM
EDRICK ALAN I Exec Vice Pres and CFO Feb 05, 2013 Option Exercise $54.95 999 54,895 109,162 Feb 05, 2013, 09:27 PM
SZE VICTOR S General Counsel Dec 31, 2012 Option Exercise $30.91 343 10,602 105,280 Jan 03, 2013, 02:02 PM
MEHRA AJAY Executive Vice President Dec 31, 2012 Option Exercise $30.91 343 10,602 166,912 Jan 03, 2013, 02:02 PM
EDRICK ALAN I Exec Vice Pres and CFO Dec 31, 2012 Option Exercise $30.91 343 10,602 110,161 Jan 03, 2013, 01:57 PM
LUSKIN MEYER/ Director Oct 31, 2012 Option Exercise $80.44 50,000 4,022,000 34,235 Nov 01, 2012, 07:02 PM
ALIABADI MANOOCHER M Pres., Optoelectronics Div Sep 21, 2012 Sale $77.23 1,566 120,940 65,782 Sep 21, 2012, 06:46 PM
CHOPRA DEEPAK President and CEO Sep 10, 2012 Option Exercise $75.10 4,552 341,855 553,526 Sep 10, 2012, 07:25 PM
CHOPRA DEEPAK President and CEO Sep 10, 2012 Sale $74.25 5,198 385,952 548,328 Sep 10, 2012, 07:25 PM
ALIABADI MANOOCHER M Pres., Optoelectronics Div Sep 10, 2012 Option Exercise $75.10 734 55,123 67,348 Sep 10, 2012, 06:31 PM
SZE VICTOR S General Counsel Sep 10, 2012 Option Exercise $75.10 1,167 87,642 104,937 Sep 10, 2012, 06:30 PM
EDRICK ALAN I Exec Vice Pres and CFO Sep 10, 2012 Option Exercise $75.10 1,751 131,500 109,818 Sep 10, 2012, 06:28 PM
EDRICK ALAN I Exec Vice Pres and CFO Sep 07, 2012 Sale $74.56 8,000 596,480 111,569 Sep 10, 2012, 06:28 PM
MEHRA AJAY Executive Vice President Sep 10, 2012 Option Exercise $75.10 1,751 131,500 166,569 Sep 10, 2012, 06:27 PM
MEHRA AJAY Executive Vice President Sep 06, 2012 Sale $73.88 3,750 277,050 168,320 Sep 10, 2012, 06:27 PM
MEHRA AJAY Executive Vice President Sep 04, 2012 Option Exercise $74.10 5,253 389,247 178,067 Sep 05, 2012, 02:22 PM
MEHRA AJAY Executive Vice President Sep 05, 2012 Sale $73.91 5,997 443,238 172,070 Sep 05, 2012, 02:22 PM
CHOPRA DEEPAK President and CEO Sep 04, 2012 Option Exercise $74.10 13,304 985,826 573,274 Sep 05, 2012, 02:18 PM
CHOPRA DEEPAK President and CEO Sep 04, 2012 Sale $73.79 15,196 1,121,313 558,078 Sep 05, 2012, 02:18 PM
ALIABADI MANOOCHER M Pres., Optoelectronics Div Sep 04, 2012 Option Exercise $74.10 909 67,357 68,082 Sep 05, 2012, 01:55 PM
SZE VICTOR S General Counsel Sep 04, 2012 Option Exercise $74.10 2,831 209,777 106,104 Sep 04, 2012, 09:20 PM
EDRICK ALAN I Exec Vice Pres and CFO Sep 04, 2012 Option Exercise $74.10 4,883 361,830 119,569 Sep 04, 2012, 09:19 PM
GOOD STEVEN C Director Aug 30, 2012 Sale $73.50 1,000 73,500 5,000 Sep 04, 2012, 08:48 PM
MEHRA AJAY Executive Vice President Aug 16, 2012 Option Exercise $73.83 15,285 1,128,492 186,973 Aug 17, 2012, 05:17 PM
MEHRA AJAY Executive Vice President Aug 16, 2012 Option Exercise $20.02 25,000 500,500 202,258 Aug 17, 2012, 05:17 PM
MEHRA AJAY Executive Vice President Aug 16, 2012 Sale $73.43 27,053 1,986,551 179,758 Aug 17, 2012, 05:17 PM
GOOD STEVEN C Director Aug 14, 2012 Sale $73.79 5,437 401,196 20,125 Aug 15, 2012, 07:46 PM
ALIABADI MANOOCHER M Pres., Optoelectronics Div Aug 13, 2012 Option Exercise $71.50 1,651 118,047 68,391 Aug 15, 2012, 07:44 PM
SZE VICTOR S General Counsel Aug 13, 2012 Option Exercise $71.50 1,858 132,847 103,935 Aug 15, 2012, 07:42 PM
MEHRA AJAY Executive Vice President Aug 13, 2012 Option Exercise $71.50 4,668 333,762 193,158 Aug 15, 2012, 07:40 PM
EDRICK ALAN I Exec Vice Pres and CFO Aug 13, 2012 Option Exercise $71.50 2,752 196,768 124,452 Aug 15, 2012, 07:35 PM
EDRICK ALAN I Exec Vice Pres and CFO Aug 14, 2012 Sale $73.74 7,500 553,050 116,952 Aug 15, 2012, 07:35 PM
CHOPRA DEEPAK President and CEO Aug 13, 2012 Option Exercise $71.50 7,784 556,556 583,364 Aug 15, 2012, 07:33 PM
CHOPRA DEEPAK President and CEO Aug 15, 2012 Option Exercise $73.56 44,605 3,281,144 608,418 Aug 15, 2012, 07:33 PM
CHOPRA DEEPAK President and CEO Aug 15, 2012 Option Exercise $12.52 80,000 1,001,600 653,023 Aug 15, 2012, 07:33 PM
CHOPRA DEEPAK President and CEO Aug 15, 2012 Sale $73.73 35,340 2,605,618 573,078 Aug 15, 2012, 07:33 PM
CHOPRA DEEPAK President and CEO Aug 14, 2012 Sale $72.39 10,341 748,585 573,023 Aug 15, 2012, 07:33 PM
MEHRA AJAY Executive Vice President Jun 29, 2012 Option Exercise $30.91 343 10,602 163,826 Jul 03, 2012, 04:07 PM
SZE VICTOR S General Counsel Jun 29, 2012 Option Exercise $30.91 343 10,602 83,293 Jul 03, 2012, 04:04 PM
EDRICK ALAN I Exec Vice Pres and CFO Jun 29, 2012 Option Exercise $30.91 343 10,602 93,204 Jul 03, 2012, 03:59 PM
ALIABADI MANOOCHER M Pres., Optoelectronics Div Jun 21, 2012 Sale $63.40 1,000 63,400 64,042 Jun 21, 2012, 07:43 PM
SZE VICTOR S General Counsel Jun 08, 2012 Sale $65.00 5,000 325,000 82,950 Jun 08, 2012, 07:15 PM
CHOPRA DEEPAK President and CEO May 23, 2012 Sale $63.96 20,000 1,279,120 525,148 May 25, 2012, 06:34 PM
GOOD STEVEN C Director Apr 26, 2012 Sale $63.00 3,813 240,219 20,062 Apr 27, 2012, 08:50 PM
EDRICK ALAN I Exec Vice Pres and CFO Mar 23, 2012 Sale $61.70 5,000 308,500 92,861 Mar 23, 2012, 07:33 PM
EDRICK ALAN I Exec Vice Pres and CFO Mar 21, 2012 Sale $61.46 7,300 448,680 97,861 Mar 23, 2012, 07:33 PM
EDRICK ALAN I Exec Vice Pres and CFO Mar 15, 2012 Sale $61.27 2,500 153,173 105,161 Mar 16, 2012, 06:28 PM
EDRICK ALAN I Exec Vice Pres and CFO Mar 14, 2012 Sale $61.51 2,700 166,070 107,661 Mar 16, 2012, 06:28 PM
MEHRA AJAY Executive Vice President Mar 06, 2012 Sale $59.00 16,000 944,000 163,483 Mar 08, 2012, 09:07 PM
ALIABADI MANOOCHER M President/GM OSI Optoelectroni Mar 02, 2012 Sale $59.00 2,500 147,502 65,042 Mar 06, 2012, 09:54 PM
MEHRA AJAY Executive Vice President Mar 01, 2012 Sale $58.53 23,452 1,372,587 179,483 Mar 02, 2012, 04:15 PM
MEHRA AJAY Executive Vice President Jan 30, 2012 Option Exercise $18.53 20,077 372,027 202,935 Feb 01, 2012, 04:15 PM
SZE VICTOR S General Counsel Dec 30, 2011 Option Exercise $30.91 343 10,602 87,950 Jan 04, 2012, 04:11 PM
EDRICK ALAN I CFO & EVP Dec 30, 2011 Option Exercise $30.91 343 10,602 110,361 Jan 04, 2012, 04:06 PM
MEHRA AJAY Executive Vice President Dec 30, 2011 Option Exercise $30.91 343 10,602 182,858 Jan 04, 2012, 04:05 PM
SZE VICTOR S General Counsel Nov 11, 2011 Option Exercise $46.38 1,209 56,073 87,607 Nov 15, 2011, 08:52 PM
SZE VICTOR S General Counsel Nov 11, 2011 Option Exercise $26.81 1,559 41,797 88,816 Nov 15, 2011, 08:52 PM
EDRICK ALAN I CFO & EVP Nov 11, 2011 Option Exercise $46.38 4,777 221,557 110,018 Nov 15, 2011, 08:50 PM
EDRICK ALAN I CFO & EVP Nov 11, 2011 Option Exercise $26.81 6,163 165,230 114,795 Nov 15, 2011, 08:50 PM
CHOPRA DEEPAK President and CEO Nov 11, 2011 Option Exercise $46.38 7,562 350,726 545,148 Nov 15, 2011, 08:48 PM
CHOPRA DEEPAK President and CEO Nov 11, 2011 Option Exercise $26.81 9,756 261,558 552,710 Nov 15, 2011, 08:48 PM
EDRICK ALAN I CFO & EVP Jul 27, 2011 Option Exercise $17.99 4,429 79,678 78,632 Jul 28, 2011, 03:35 PM
MEHRA AJAY Executive Vice President Jul 05, 2011 Option Exercise $30.91 343 10,602 152,515 Jul 05, 2011, 08:08 PM
SZE VICTOR S General Counsel Jul 05, 2011 Option Exercise $30.91 343 10,602 67,257 Jul 05, 2011, 08:04 PM
EDRICK ALAN I CFO & EVP Jul 05, 2011 Option Exercise $30.91 343 10,602 74,203 Jul 05, 2011, 08:00 PM
ALIABADI MANOOCHER M President/GM OSI Optoelectroni Jun 21, 2011 Sale $39.79 657 26,145 55,542 Jun 22, 2011, 08:53 PM
CHOPRA DEEPAK President and CEO Jun 17, 2011 Option Exercise $17.90 5,647 101,081 476,954 Jun 21, 2011, 09:14 PM
EDRICK ALAN I CFO & EVP Jun 21, 2011 Sale $40.70 870 35,409 73,860 Jun 21, 2011, 08:27 PM
MEHRA AJAY Executive Vice President Jun 08, 2011 Sale $39.29 7,620 299,385 152,172 Jun 10, 2011, 05:40 PM
SZE VICTOR S General Counsel Jun 03, 2011 Option Exercise $18.16 12,926 234,736 66,914 Jun 03, 2011, 07:25 PM
ALIABADI MANOOCHER M President/GM OSI Optoelectroni May 11, 2011 Sale $39.56 395 15,626 56,199 May 13, 2011, 02:47 PM
ALIABADI MANOOCHER M President/GM OSI Optoelectroni May 03, 2011 Sale $36.39 230 8,370 56,594 May 05, 2011, 08:12 PM
ALIABADI MANOOCHER M President/GM OSI Optoelectroni Feb 09, 2011 Sale $38.03 469 17,835 56,824 Feb 10, 2011, 09:57 PM
CHOPRA DEEPAK President and CEO Feb 04, 2011 Sale $37.86 25,000 946,480 471,307 Feb 04, 2011, 06:10 PM
SZE VICTOR S General Counsel Feb 04, 2011 Option Exercise $16.21 5,516 89,414 53,988 Feb 04, 2011, 06:03 PM
CHOPRA DEEPAK President and CEO Jan 31, 2011 Sale $37.72 5,000 188,582 65,000 Feb 01, 2011, 06:53 PM
CHOPRA DEEPAK President and CEO Jan 31, 2011 Sale $37.59 5,000 187,952 25,000 Feb 01, 2011, 06:53 PM
SZE VICTOR S General Counsel Jan 03, 2011 Option Exercise $12.21 870 10,623 48,472 Jan 03, 2011, 06:34 PM
MEHRA AJAY Executive Vice President Jan 03, 2011 Option Exercise $12.21 870 10,623 159,792 Jan 03, 2011, 05:39 PM
EDRICK ALAN I CFO & EVP Jan 03, 2011 Option Exercise $12.21 870 10,623 74,730 Jan 03, 2011, 05:34 PM
EDRICK ALAN I CFO & EVP Dec 02, 2010 Option Exercise $17.99 4,000 71,960 73,860 Dec 08, 2010, 12:14 PM
LUSKIN MEYER/ Director Nov 10, 2010 Sale $36.87 3,555 131,082 79,477 Nov 12, 2010, 03:34 PM
LUSKIN MEYER/ Director Nov 09, 2010 Sale $36.61 100 3,661 13,563 Nov 12, 2010, 03:34 PM
LUSKIN MEYER/ Director Nov 09, 2010 Sale $36.61 100 3,661 79,477 Nov 12, 2010, 03:34 PM
LUSKIN MEYER/ Director Nov 10, 2010 Sale $36.85 5,555 204,729 77,922 Nov 12, 2010, 03:34 PM
CHOPRA DEEPAK President and CEO Nov 04, 2010 Sale $37.18 25,000 929,438 496,307 Nov 05, 2010, 05:55 PM
LUSKIN MEYER/ Director Nov 01, 2010 Option Exercise $18.53 20,000 370,600 13,563 Nov 03, 2010, 08:51 PM
LUSKIN MEYER/ Director Nov 01, 2010 Option Exercise $177.55 71,984 12,780,453 79,577 Nov 03, 2010, 08:51 PM
LUSKIN MEYER/ Director Nov 01, 2010 Option Exercise $238.72 51,984 12,409,853 69,577 Nov 03, 2010, 08:51 PM
LUSKIN MEYER/ Director Sep 21, 2010 Sale $34.44 7,000 241,080 3,781 Sep 21, 2010, 08:55 PM
LUSKIN MEYER/ Director Sep 20, 2010 Sale $34.42 7,000 240,916 10,781 Sep 21, 2010, 08:55 PM
ALIABADI MANOOCHER M President/GM OSI Optoelectroni Sep 08, 2010 Sale $31.50 1,250 39,370 57,293 Sep 09, 2010, 09:08 PM
MEHRA AJAY Executive Vice President Sep 08, 2010 Sale $31.49 1,333 41,975 158,922 Sep 09, 2010, 09:03 PM
MEHRA AJAY Executive Vice President Sep 02, 2010 Sale $31.48 3,750 118,034 160,255 Sep 03, 2010, 09:01 PM
SZE VICTOR S General Counsel Sep 02, 2010 Sale $31.49 1,208 38,040 47,602 Sep 03, 2010, 08:58 PM
ALIABADI MANOOCHER M President/GM OSI Optoelectroni Sep 02, 2010 Sale $31.32 1,875 58,733 58,543 Sep 03, 2010, 08:55 PM
CHOPRA DEEPAK President and CEO Sep 03, 2010 Sale $31.52 25,000 787,895 521,307 Sep 03, 2010, 08:54 PM
Bider Leslie E Jul 22, 2010 Option Exercise $21.84 11,250 245,700 33,188 Jul 23, 2010, 07:47 PM

Desktop Version

Owner Relationship Date Transaction Value($)
Cegielski Deborah Lee SVP, Chief HR Officer Sep 18, 2019 Option Exercise 29,477
Thompson Michael Shawn President, OSI Electronics Sep 18, 2019 Option Exercise 32,624
ALIABADI MANOOCHER M Pres., Optoelectronics Div Sep 18, 2019 Option Exercise 523,661
MEHRA AJAY Executive Vice President Sep 19, 2019 Option Exercise 183,610
MEHRA AJAY Executive Vice President Sep 18, 2019 Option Exercise 1,075,225
SZE VICTOR S General Counsel Sep 18, 2019 Option Exercise 3,101,788
EDRICK ALAN I EVP & CFO Sep 18, 2019 Option Exercise 3,583,699
CHOPRA DEEPAK President and CEO Sep 18, 2019 Option Exercise 8,120,519
SZE VICTOR S General Counsel Sep 11, 2019 Sale 1,575,744
MEHRA AJAY Executive Vice President Sep 05, 2019 Sale 1,139,912
ALIABADI MANOOCHER M Pres., Optoelectronics Div Aug 29, 2019 Option Exercise 1,398,110
ALIABADI MANOOCHER M Pres., Optoelectronics Div Aug 29, 2019 Option Exercise 420,005
SZE VICTOR S General Counsel Aug 28, 2019 Option Exercise 3,354,906
SZE VICTOR S General Counsel Aug 28, 2019 Option Exercise 900,350
SZE VICTOR S General Counsel Aug 29, 2019 Sale 2,482,444
EDRICK ALAN I EVP & CFO Aug 30, 2019 Option Exercise 3,619,065
EDRICK ALAN I EVP & CFO Aug 28, 2019 Option Exercise 409,250
EDRICK ALAN I EVP & CFO Aug 30, 2019 Option Exercise 982,200
EDRICK ALAN I EVP & CFO Aug 28, 2019 Sale 2,655,200
CHOPRA DEEPAK President and CEO Aug 29, 2019 Sale 1,738,904
MEHRA AJAY Executive Vice President Aug 26, 2019 Sale 266,759
MEHRA AJAY Executive Vice President Aug 19, 2019 Option Exercise 220,628
CHOPRA DEEPAK President and CEO Aug 06, 2019 Sale 698,239
CHOPRA DEEPAK President and CEO Aug 05, 2019 Sale 2,497,361
CHOPRA DEEPAK President and CEO Aug 05, 2019 Sale 533,200
Green James W Pres., Spacelabs Healthcare Jul 05, 2019 Option Exercise 27,189
SZE VICTOR S General Counsel Jul 01, 2019 Option Exercise 10,574
CHOPRA DEEPAK President and CEO Jul 01, 2019 Option Exercise 10,574
MEHRA AJAY Executive Vice President Jul 01, 2019 Option Exercise 10,574
EDRICK ALAN I EVP & CFO Jul 01, 2019 Option Exercise 10,574
SZE VICTOR S General Counsel May 14, 2019 Sale 2,083,400
CHOPRA DEEPAK President and CEO May 07, 2019 Sale 955,894
CHOPRA DEEPAK President and CEO May 06, 2019 Sale 1,510,925
CHOPRA DEEPAK President and CEO May 06, 2019 Sale 1,082,760
EDRICK ALAN I EVP & CFO May 06, 2019 Sale 1,031,300
MEHRA AJAY Executve Vice President May 02, 2019 Option Exercise 1,008,600
MEHRA AJAY Executve Vice President May 02, 2019 Sale 3,023,100
ALIABADI MANOOCHER M Pres., Optoelectronics Div Feb 20, 2019 Sale 439,000
CHOPRA DEEPAK President and CEO Feb 20, 2019 Sale 576,810
CHOPRA DEEPAK President and CEO Feb 20, 2019 Sale 1,191,053
CHOPRA DEEPAK President and CEO Feb 19, 2019 Sale 2,152,765
CHOPRA DEEPAK President and CEO Feb 15, 2019 Sale 2,191,750
SZE VICTOR S General Counsel Feb 12, 2019 Sale 1,725,468
EDRICK ALAN I EVP & CFO Feb 11, 2019 Sale 865,320
MEHRA AJAY Executve Vice President Feb 04, 2019 Option Exercise 245,550
MEHRA AJAY Executve Vice President Feb 04, 2019 Sale 2,423,252
Ballhaus William Francis JR Director Feb 04, 2019 Sale 60,169
GOOD STEVEN C Director Jan 29, 2019 Sale 304,500
SZE VICTOR S General Counsel Jan 08, 2019 Option Exercise 1,107,901
SZE VICTOR S General Counsel Jan 08, 2019 Option Exercise 375,600
SZE VICTOR S General Counsel Dec 31, 2018 Option Exercise 9,970
MEHRA AJAY Executve Vice President Dec 31, 2018 Option Exercise 9,970
EDRICK ALAN I EVP & CFO Dec 31, 2018 Option Exercise 9,970
CHOPRA DEEPAK President and CEO Dec 31, 2018 Option Exercise 9,970
GOOD STEVEN C Director Dec 06, 2018 Sale 103,740
GOOD STEVEN C Director Dec 06, 2018 Sale 207,480
EDRICK ALAN I EVP & CFO Dec 03, 2018 Option Exercise 500,800
EDRICK ALAN I EVP & CFO Dec 03, 2018 Sale 2,882,800
CHOPRA DEEPAK President and CEO Nov 23, 2018 Sale 593,686
CHOPRA DEEPAK President and CEO Nov 19, 2018 Sale 278,426
Maginnis Malcolm Peter Pres., Rapiscan Systems Nov 20, 2018 Sale 39,494
MEHRA AJAY Executve Vice President Sep 19, 2018 Option Exercise 133,216
CHOPRA DEEPAK President and CEO Sep 10, 2018 Sale 1,872,500
GOOD STEVEN C Director Sep 05, 2018 Sale 115,290
GOOD STEVEN C Director Sep 05, 2018 Sale 230,580
SZE VICTOR S General Counsel Sep 04, 2018 Option Exercise 2,212,232
Thompson Michael Shawn President, OSI Electronics Sep 04, 2018 Option Exercise 10,437
ALIABADI MANOOCHER M Pres., Optoelectronics Div Sep 04, 2018 Option Exercise 262,957
MEHRA AJAY Executve Vice President Sep 04, 2018 Option Exercise 705,839
EDRICK ALAN I EVP & CFO Sep 04, 2018 Option Exercise 2,656,750
CHOPRA DEEPAK President and CEO Sep 04, 2018 Option Exercise 6,032,503
Green James W Pres., Spacelabs Healthcare Aug 28, 2018 Buy 19,163
MEHRA AJAY Executve Vice President Aug 20, 2018 Option Exercise 124,671
MEHRA AJAY Executve Vice President Aug 15, 2012 Sale 1,071,625
Merritt Richard Edward SVP, Chief HR Officer Jul 24, 2018 Option Exercise 5,645
SZE VICTOR S General Counsel Jul 13, 2018 Option Exercise 210,534
SZE VICTOR S General Counsel Jul 13, 2018 Option Exercise 104,600
Merritt Richard Edward SVP, Chief HR Officer Jul 02, 2018 Option Exercise 10,595
SZE VICTOR S General Counsel Jul 02, 2018 Option Exercise 10,595
MEHRA AJAY Executve Vice President Jul 02, 2018 Option Exercise 10,595
EDRICK ALAN I EVP & CFO Jul 02, 2018 Option Exercise 10,595
CHOPRA DEEPAK President and CEO Jul 02, 2018 Option Exercise 10,595
ALIABADI MANOOCHER M Pres., Optoelectronics Div Feb 06, 2018 Option Exercise 277,709
ALIABADI MANOOCHER M Pres., Optoelectronics Div Feb 06, 2018 Option Exercise 173,850
LUSKIN MEYER/ Director Feb 06, 2018 Buy 1,135,700
ALIABADI MANOOCHER M Pres., Optoelectronics Div Feb 06, 2018 Option Exercise 277,709
ALIABADI MANOOCHER M Pres., Optoelectronics Div Feb 06, 2018 Option Exercise 173,850
EDRICK ALAN I EVP & CFO Feb 07, 2018 Option Exercise 517,829
EDRICK ALAN I EVP & CFO Feb 07, 2018 Option Exercise 324,520
EDRICK ALAN I EVP & CFO Feb 05, 2018 Option Exercise 209,200
Merritt Richard Edward SVP, Chief HR Officer Dec 29, 2017 Option Exercise 10,595
MEHRA AJAY Executve Vice President Dec 29, 2017 Option Exercise 10,595
SZE VICTOR S General Counsel Dec 29, 2017 Option Exercise 10,595
EDRICK ALAN I EVP & CFO Dec 29, 2017 Option Exercise 10,595
CHOPRA DEEPAK President and CEO Dec 29, 2017 Option Exercise 10,595
Merritt Richard Edward SVP, Chief HR Officer Oct 30, 2017 Option Exercise 28,985
ALIABADI MANOOCHER M Pres., Optoelectronics Div Sep 20, 2017 Option Exercise 288,291
Kumar Sujit Shamsunder Pres., Spacelabs Healthcare Sep 20, 2017 Option Exercise 12,838
Merritt Richard Edward SVP, Chief HR Officer Sep 20, 2017 Option Exercise 123,381
MEHRA AJAY Executve Vice President Sep 20, 2017 Option Exercise 828,601
SZE VICTOR S General Counsel Sep 20, 2017 Option Exercise 2,202,680
EDRICK ALAN I EVP & CFO Sep 20, 2017 Option Exercise 2,818,725
CHOPRA DEEPAK President and CEO Sep 20, 2017 Option Exercise 6,981,287
EDRICK ALAN I EVP & CFO Sep 13, 2017 Option Exercise 684,339
EDRICK ALAN I EVP & CFO Sep 13, 2017 Option Exercise 260,260
CHOPRA DEEPAK President and CEO Sep 13, 2017 Option Exercise 3,158,341
CHOPRA DEEPAK President and CEO Sep 13, 2017 Option Exercise 1,201,200
MEHRA AJAY Executve Vice President Aug 18, 2017 Option Exercise 126,712
Ballhaus William Francis JR Director Dec 15, 2016 Sale 66,605
Merritt Richard Edward SVP, Chief HR Officer Jul 24, 2017 Option Exercise 5,657
Merritt Richard Edward SVP, Chief HR Officer Jul 03, 2017 Option Exercise 10,595
SZE VICTOR S General Counsel Jul 03, 2017 Option Exercise 10,595
MEHRA AJAY Executve Vice President Jul 03, 2017 Option Exercise 10,595
EDRICK ALAN I EVP & CFO Jul 03, 2017 Option Exercise 10,595
CHOPRA DEEPAK President and CEO Jul 03, 2017 Option Exercise 10,595
EDRICK ALAN I EVP & CFO Mar 14, 2017 Option Exercise 700,700
EDRICK ALAN I EVP & CFO Mar 14, 2017 Sale 2,559,900
Merritt Richard Edward SVP, Chief HR Officer Dec 30, 2016 Option Exercise 10,595
SZE VICTOR S General Counsel Dec 30, 2016 Option Exercise 10,595
MEHRA AJAY Executve Vice President Dec 30, 2016 Option Exercise 10,595
EDRICK ALAN I EVP & CFO Dec 30, 2016 Option Exercise 10,595
CHOPRA DEEPAK President and CEO Dec 30, 2016 Option Exercise 10,595
ALIABADI MANOOCHER M Pres., Optoelectronics Div Dec 22, 2016 Sale 267,013
SZE VICTOR S General Counsel Dec 14, 2016 Option Exercise 480,480
SZE VICTOR S General Counsel Dec 15, 2016 Option Exercise 231,800
SZE VICTOR S General Counsel Dec 15, 2016 Sale 757,700
SZE VICTOR S General Counsel Dec 14, 2016 Sale 1,809,600
MEHRA AJAY Executve Vice President Dec 12, 2016 Option Exercise 409,250
MEHRA AJAY Executve Vice President Dec 13, 2016 Option Exercise 409,250
MEHRA AJAY Executve Vice President Dec 09, 2016 Sale 860,474
MEHRA AJAY Executve Vice President Dec 13, 2016 Sale 1,899,000
MEHRA AJAY Executve Vice President Dec 12, 2016 Sale 1,915,500
MEHRA AJAY Executve Vice President Dec 13, 2016 Option Exercise 1,899,000
MEHRA AJAY Executve Vice President Dec 12, 2016 Option Exercise 409,250
MEHRA AJAY Executve Vice President Dec 13, 2016 Option Exercise 409,250
MEHRA AJAY Executve Vice President Dec 12, 2016 Sale 1,915,500
MEHRA AJAY Executve Vice President Dec 09, 2016 Sale 860,474
GOOD STEVEN C Director Dec 07, 2016 Sale 305,800
CHOPRA DEEPAK President and CEO Dec 07, 2016 Sale 3,795,500
CHOPRA DEEPAK President and CEO Dec 07, 2016 Sale 378,550
Merritt Richard Edward SVP, Chief HR Officer Oct 31, 2016 Option Exercise 23,774
ALIABADI MANOOCHER M Pres., Optoelectronics Div Oct 24, 2016 Option Exercise 92,021
Morben Paul Keith Pres., OSI Electronics Oct 24, 2016 Option Exercise 69,761
CHOPRA DEEPAK President and CEO Oct 21, 2016 Option Exercise 4,415,285
EDRICK ALAN I EVP & CFO Oct 21, 2016 Option Exercise 2,047,125
MEHRA AJAY Executve Vice President Oct 21, 2016 Option Exercise 491,352
SZE VICTOR S General Counsel Oct 21, 2016 Option Exercise 1,484,984
GOOD STEVEN C Director Sep 15, 2016 Sale 190,050
Merritt Richard Edward SVP, Chief HR Officer Jul 25, 2016 Option Exercise 4,278
Merritt Richard Edward SVP, Chief HR Officer Jun 30, 2016 Option Exercise 7,510
SZE VICTOR S General Counsel Jun 30, 2016 Option Exercise 9,931
MEHRA AJAY Executve Vice President Jun 30, 2016 Option Exercise 9,931
EDRICK ALAN I EVP & CFO Jun 30, 2016 Option Exercise 9,931
CHOPRA DEEPAK President and CEO Jun 30, 2016 Option Exercise 9,931
Morben Paul Keith Pres., OSI Electronics Feb 10, 2016 Option Exercise 4,594
Ong Chee Cheong Nicholas Pres., Spacelabs Healthcare Feb 10, 2016 Option Exercise 4,485
Ong Chee Cheong Nicholas Pres., Spacelabs Healthcare Dec 31, 2015 Option Exercise 10,611
Merritt Richard Edward SVP, Chief HR Officer Dec 31, 2015 Option Exercise 10,505
SZE VICTOR S General Counsel Dec 31, 2015 Option Exercise 10,611
MEHRA AJAY Executve Vice President Dec 31, 2015 Option Exercise 10,611
EDRICK ALAN I EVP & CFO Dec 31, 2015 Option Exercise 10,611
CHOPRA DEEPAK President and CEO Dec 31, 2015 Option Exercise 10,611
HAWKINS JAMES B Director Dec 11, 2015 Option Exercise 88,073
Ong Chee Cheong Nicholas Pres., Spacelabs Healthcare Nov 30, 2015 Sale 187,260
Ong Chee Cheong Nicholas Pres., Spacelabs Healthcare Dec 01, 2015 Sale 284,010
Ong Chee Cheong Nicholas Pres., Spacelabs Healthcare Dec 01, 2015 Sale 284,010
Ong Chee Cheong Nicholas Pres., Spacelabs Healthcare Nov 30, 2015 Sale 187,260
ALIABADI MANOOCHER M Pres., Optoelectronics Div Nov 27, 2015 Sale 469,100
SZE VICTOR S General Counsel Nov 24, 2015 Sale 943,500
CHOPRA DEEPAK President and CEO Nov 25, 2015 Sale 3,481,233
CHOPRA DEEPAK President and CEO Nov 25, 2015 Sale 188,360
CHOPRA DEEPAK President and CEO Nov 25, 2015 Sale 282,930
CHOPRA DEEPAK President and CEO Nov 25, 2015 Sale 471,500
MEHRA AJAY Executve Vice President Nov 20, 2015 Option Exercise 652,400
MEHRA AJAY Executve Vice President Nov 20, 2015 Sale 3,829,372
EDRICK ALAN I EVP & CFO Nov 19, 2015 Sale 1,103,856
EDRICK ALAN I EVP & CFO Nov 18, 2015 Sale 1,586,179
EDRICK ALAN I EVP & CFO Nov 20, 2015 Sale 477,550
Merritt Richard Edward SVP, Chief HR Officer Oct 29, 2015 Option Exercise 28,110
GOOD STEVEN C Director Sep 25, 2015 Sale 195,350
Ong Chee Cheong Nicholas Pres., Spacelabs Healthcare Sep 17, 2015 Option Exercise 321,760
Ong Chee Cheong Nicholas Pres., Spacelabs Healthcare Dec 19, 2014 Buy 71,700
Ong Chee Cheong Nicholas Pres., Spacelabs Healthcare Aug 07, 2015 Buy 67,000
Ong Chee Cheong Nicholas Pres., Spacelabs Healthcare Dec 19, 2014 Sale 143,700
Ong Chee Cheong Nicholas Pres., Spacelabs Healthcare Sep 08, 2015 Sale 74,450
Ong Chee Cheong Nicholas Pres., Spacelabs Healthcare Jun 08, 2015 Sale 277,098
Ong Chee Cheong Nicholas Pres., Spacelabs Healthcare Dec 24, 2014 Sale 72,200
Ong Chee Cheong Nicholas Pres., Spacelabs Healthcare Sep 17, 2015 Sale 2,578,646
MEHRA AJAY Executve Vice President Sep 16, 2015 Option Exercise 944,341
MEHRA AJAY Executve Vice President Sep 17, 2015 Option Exercise 208,620
MEHRA AJAY Executve Vice President Sep 16, 2015 Sale 772,300
MEHRA AJAY Executve Vice President Sep 17, 2015 Sale 1,826,703
Morben Paul Keith Pres., OSI Electronics Sep 17, 2015 Sale 233,042
CHOPRA DEEPAK President and CEO Sep 16, 2015 Sale 4,637,280
Merritt Richard Edward SVP, Chief HR Officer Sep 14, 2015 Option Exercise 16,573
Morben Paul Keith Pres., OSI Electronics Sep 14, 2015 Option Exercise 133,782
Ong Chee Cheong Nicholas Pres., Spacelabs Healthcare Sep 14, 2015 Option Exercise 298,160
ALIABADI MANOOCHER M Pres., Optoelectronics Div Sep 14, 2015 Option Exercise 194,674
SZE VICTOR S General Counsel Sep 14, 2015 Option Exercise 1,775,838
MEHRA AJAY Executve Vice President Sep 14, 2015 Option Exercise 755,149
EDRICK ALAN I EVP & CFO Sep 14, 2015 Option Exercise 2,663,945
CHOPRA DEEPAK President and CEO Sep 14, 2015 Option Exercise 5,454,323
Ong Chee Cheong Nicholas Pres., Spacelabs Healthcare Sep 09, 2015 Option Exercise 20,457
ALIABADI MANOOCHER M Pres., Optoelectronics Div Sep 09, 2015 Option Exercise 56,144
SZE VICTOR S General Counsel Sep 09, 2015 Option Exercise 70,180
MEHRA AJAY Executve Vice President Sep 09, 2015 Option Exercise 105,271
EDRICK ALAN I EVP & CFO Sep 09, 2015 Option Exercise 105,271
CHOPRA DEEPAK President and CEO Sep 09, 2015 Option Exercise 273,629
SZE VICTOR S General Counsel Sep 03, 2015 Sale 1,471,600
Merritt Richard Edward SVP, Chief HR Officer Jul 24, 2015 Option Exercise 4,969
Ong Chee Cheong Nicholas Pres., Spacelabs Healthcare Jul 01, 2015 Option Exercise 10,611
Merritt Richard Edward SVP, Chief HR Officer Jul 01, 2015 Option Exercise 7,496
SZE VICTOR S General Counsel Jul 01, 2015 Option Exercise 10,611
MEHRA AJAY Executve Vice President Jul 01, 2015 Option Exercise 10,611
CHOPRA DEEPAK President and CEO Jul 01, 2015 Option Exercise 10,611
EDRICK ALAN I EVP & CFO Jul 01, 2015 Option Exercise 10,611
CHOPRA DEEPAK President and CEO Jun 18, 2015 Sale 738,800
CHOPRA DEEPAK President and CEO Jun 18, 2015 Sale 184,700
EDRICK ALAN I EVP & CFO Jun 11, 2015 Sale 1,461,200
MEHRA AJAY Executve Vice President May 21, 2015 Option Exercise 140,140
MEHRA AJAY Executve Vice President May 20, 2015 Sale 1,111,182
MEHRA AJAY Executve Vice President May 21, 2015 Sale 503,090
CHOPRA DEEPAK President and CEO May 18, 2015 Sale 178,575
CHOPRA DEEPAK President and CEO May 18, 2015 Sale 714,300
GOOD STEVEN C Director May 04, 2015 Sale 204,000
CHOPRA DEEPAK President and CEO Apr 17, 2015 Sale 187,475
CHOPRA DEEPAK President and CEO Apr 17, 2015 Sale 749,900
CHOPRA DEEPAK President and CEO Mar 16, 2015 Sale 182,625
CHOPRA DEEPAK President and CEO Mar 16, 2015 Sale 730,500
ALIABADI MANOOCHER M Pres., Optoelectronics Div Feb 25, 2015 Sale 359,850
Ong Chee Cheong Nicholas Pres., Spacelabs Healthcare Feb 10, 2015 Option Exercise 5,800
Morben Paul Keith Pres., OSI Electronics Feb 10, 2015 Option Exercise 5,941
GOOD STEVEN C Director Feb 03, 2015 Sale 272,610
Morben Paul Keith Pres, OSI Electronics Jan 28, 2015 Option Exercise 2,149
Merritt Richard Edward SVP, Chief Human Resouce Offic Dec 31, 2014 Option Exercise 4,012
Ong Chee Cheong Nicholas Pres, Spacelabs Healthcare Dec 31, 2014 Option Exercise 9,397
SZE VICTOR S General Counsel Dec 31, 2014 Option Exercise 6,704
MEHRA AJAY Executive Vice President Dec 31, 2014 Option Exercise 9,713
EDRICK ALAN I Exec Vice Pres and CFO Dec 31, 2014 Option Exercise 10,611
CHOPRA DEEPAK President and CEO Dec 31, 2014 Option Exercise 10,611
CHOPRA DEEPAK President and CEO Dec 12, 2014 Sale 696,500
CHOPRA DEEPAK President and CEO Dec 12, 2014 Sale 349,350
CHOPRA DEEPAK President and CEO Dec 12, 2014 Sale 2,105,400
CHOPRA DEEPAK President and CEO Dec 15, 2014 Sale 819,960
CHOPRA DEEPAK President and CEO Dec 12, 2014 Sale 346,200
EDRICK ALAN I Exec Vice Pres and CFO Dec 11, 2014 Sale 996,712
CHOPRA DEEPAK President and CEO Nov 17, 2014 Sale 822,840
MEHRA AJAY Executive Vice President Oct 29, 2014 Sale 2,072,070
CHOPRA DEEPAK President and CEO Dec 27, 2012 Option Exercise 1,084,770
CHOPRA DEEPAK President and CEO Oct 15, 2014 Sale 728,280
SZE VICTOR S General Counsel Sep 30, 2014 Option Exercise 10,468
MEHRA AJAY Executive Vice President Sep 30, 2014 Option Exercise 10,468
EDRICK ALAN I Exec Vice Pres and CFO Sep 30, 2014 Option Exercise 10,468
ALIABADI MANOOCHER M Pres., Optoelectronics Div Sep 26, 2014 Option Exercise 50,689
SZE VICTOR S General Counsel Sep 26, 2014 Option Exercise 616,906
MEHRA AJAY Executive Vice President Sep 26, 2014 Option Exercise 1,002,409
MEHRA AJAY Executive Vice President Sep 26, 2014 Option Exercise 1,010,095
EDRICK ALAN I Exec Vice Pres and CFO Sep 26, 2014 Option Exercise 985,576
CHOPRA DEEPAK President and CEO Sep 26, 2014 Option Exercise 1,909,221
CHOPRA DEEPAK President and CEO Sep 25, 2014 Sale 754,920
ALIABADI MANOOCHER M Pres., Optoelectronics Div Sep 12, 2014 Sale 132,620
Ballhaus William Francis JR Director Sep 10, 2014 Sale 58,345
GOOD STEVEN C Director Sep 09, 2014 Sale 223,340
ALIABADI MANOOCHER M Pres., Optoelectronics Div Sep 09, 2014 Option Exercise 51,775
SZE VICTOR S General Counsel Sep 09, 2014 Option Exercise 64,719
MEHRA AJAY Executive Vice President Sep 09, 2014 Option Exercise 97,078
EDRICK ALAN I Exec Vice Pres and CFO Sep 09, 2014 Option Exercise 97,078
CHOPRA DEEPAK President and CEO Sep 09, 2014 Option Exercise 350,309
GOOD STEVEN C Director Sep 02, 2014 Option Exercise 51,052
ALIABADI MANOOCHER M Pres., Optoelectronics Div Aug 11, 2014 Option Exercise 113,500
SZE VICTOR S General Counsel Aug 11, 2014 Option Exercise 127,805
MEHRA AJAY Executive Vice President Aug 11, 2014 Option Exercise 252,387
EDRICK ALAN I Exec Vice Pres and CFO Aug 11, 2014 Option Exercise 189,324
CHOPRA DEEPAK President and CEO Aug 11, 2014 Option Exercise 489,193
ALIABADI MANOOCHER M Pres., Optoelectronics Div Sep 16, 2013 Option Exercise 41,657
SZE VICTOR S General Counsel Sep 16, 2013 Option Exercise 601,563
MEHRA AJAY Executive Vice President Sep 16, 2013 Option Exercise 942,638
EDRICK ALAN I Exec Vice Pres and CFO Sep 16, 2013 Option Exercise 942,638
CHOPRA DEEPAK President and CEO Sep 16, 2013 Option Exercise 1,789,059
ALIABADI MANOOCHER M Pres., Optoelectronics Div Sep 09, 2013 Option Exercise 54,197
SZE VICTOR S General Counsel Sep 09, 2013 Option Exercise 67,746
MEHRA AJAY Executive Vice President Sep 09, 2013 Option Exercise 141,041
EDRICK ALAN I Exec Vice Pres and CFO Sep 09, 2013 Option Exercise 135,564
CHOPRA DEEPAK President and CEO Sep 09, 2013 Option Exercise 366,692
ALIABADI MANOOCHER M Pres., Optoelectronics Div Sep 03, 2013 Option Exercise 51,253
SZE VICTOR S General Counsel Sep 03, 2013 Option Exercise 68,338
MEHRA AJAY Executive Vice President Sep 03, 2013 Option Exercise 123,881
EDRICK ALAN I Exec Vice Pres and CFO Sep 03, 2013 Option Exercise 102,507
CHOPRA DEEPAK President and CEO Sep 03, 2013 Option Exercise 569,023
ALIABADI MANOOCHER M Pres., Optoelectronics Div Aug 28, 2013 Sale 99,050
EDRICK ALAN I Exec Vice Pres and CFO Aug 12, 2013 Option Exercise 207,676
ALIABADI MANOOCHER M Pres., Optoelectronics Div Aug 12, 2013 Option Exercise 124,429
MEHRA AJAY Executive Vice President Aug 12, 2013 Option Exercise 276,852
SZE VICTOR S General Counsel Aug 12, 2013 Option Exercise 140,194
CHOPRA DEEPAK President and CEO Aug 12, 2013 Option Exercise 590,907
SZE VICTOR S General Counsel Jul 01, 2013 Option Exercise 10,459
MEHRA AJAY Executive Vice President Jul 01, 2013 Option Exercise 10,459
EDRICK ALAN I Exec Vice Pres and CFO Jul 01, 2013 Option Exercise 10,459
ALIABADI MANOOCHER M Pres., Optoelectronics Div Apr 26, 2013 Sale 56,430
MEHRA AJAY Executive Vice President Feb 05, 2013 Option Exercise 54,950
LUSKIN MEYER/ Director Feb 05, 2013 Option Exercise 111,800
SZE VICTOR S General Counsel Feb 05, 2013 Option Exercise 42,751
EDRICK ALAN I Exec Vice Pres and CFO Feb 05, 2013 Option Exercise 54,895
SZE VICTOR S General Counsel Dec 31, 2012 Option Exercise 10,602
MEHRA AJAY Executive Vice President Dec 31, 2012 Option Exercise 10,602
EDRICK ALAN I Exec Vice Pres and CFO Dec 31, 2012 Option Exercise 10,602
LUSKIN MEYER/ Director Oct 31, 2012 Option Exercise 4,022,000
ALIABADI MANOOCHER M Pres., Optoelectronics Div Sep 21, 2012 Sale 120,940
CHOPRA DEEPAK President and CEO Sep 10, 2012 Option Exercise 341,855
CHOPRA DEEPAK President and CEO Sep 10, 2012 Sale 385,952
ALIABADI MANOOCHER M Pres., Optoelectronics Div Sep 10, 2012 Option Exercise 55,123
SZE VICTOR S General Counsel Sep 10, 2012 Option Exercise 87,642
EDRICK ALAN I Exec Vice Pres and CFO Sep 10, 2012 Option Exercise 131,500
EDRICK ALAN I Exec Vice Pres and CFO Sep 07, 2012 Sale 596,480
MEHRA AJAY Executive Vice President Sep 10, 2012 Option Exercise 131,500
MEHRA AJAY Executive Vice President Sep 06, 2012 Sale 277,050
MEHRA AJAY Executive Vice President Sep 04, 2012 Option Exercise 389,247
MEHRA AJAY Executive Vice President Sep 05, 2012 Sale 443,238
CHOPRA DEEPAK President and CEO Sep 04, 2012 Option Exercise 985,826
CHOPRA DEEPAK President and CEO Sep 04, 2012 Sale 1,121,313
ALIABADI MANOOCHER M Pres., Optoelectronics Div Sep 04, 2012 Option Exercise 67,357
SZE VICTOR S General Counsel Sep 04, 2012 Option Exercise 209,777
EDRICK ALAN I Exec Vice Pres and CFO Sep 04, 2012 Option Exercise 361,830
GOOD STEVEN C Director Aug 30, 2012 Sale 73,500
MEHRA AJAY Executive Vice President Aug 16, 2012 Option Exercise 1,128,492
MEHRA AJAY Executive Vice President Aug 16, 2012 Option Exercise 500,500
MEHRA AJAY Executive Vice President Aug 16, 2012 Sale 1,986,551
GOOD STEVEN C Director Aug 14, 2012 Sale 401,196
ALIABADI MANOOCHER M Pres., Optoelectronics Div Aug 13, 2012 Option Exercise 118,047
SZE VICTOR S General Counsel Aug 13, 2012 Option Exercise 132,847
MEHRA AJAY Executive Vice President Aug 13, 2012 Option Exercise 333,762
EDRICK ALAN I Exec Vice Pres and CFO Aug 13, 2012 Option Exercise 196,768
EDRICK ALAN I Exec Vice Pres and CFO Aug 14, 2012 Sale 553,050
CHOPRA DEEPAK President and CEO Aug 13, 2012 Option Exercise 556,556
CHOPRA DEEPAK President and CEO Aug 15, 2012 Option Exercise 3,281,144
CHOPRA DEEPAK President and CEO Aug 15, 2012 Option Exercise 1,001,600
CHOPRA DEEPAK President and CEO Aug 15, 2012 Sale 2,605,618
CHOPRA DEEPAK President and CEO Aug 14, 2012 Sale 748,585
MEHRA AJAY Executive Vice President Jun 29, 2012 Option Exercise 10,602
SZE VICTOR S General Counsel Jun 29, 2012 Option Exercise 10,602
EDRICK ALAN I Exec Vice Pres and CFO Jun 29, 2012 Option Exercise 10,602
ALIABADI MANOOCHER M Pres., Optoelectronics Div Jun 21, 2012 Sale 63,400
SZE VICTOR S General Counsel Jun 08, 2012 Sale 325,000
CHOPRA DEEPAK President and CEO May 23, 2012 Sale 1,279,120
GOOD STEVEN C Director Apr 26, 2012 Sale 240,219
EDRICK ALAN I Exec Vice Pres and CFO Mar 23, 2012 Sale 308,500
EDRICK ALAN I Exec Vice Pres and CFO Mar 21, 2012 Sale 448,680
EDRICK ALAN I Exec Vice Pres and CFO Mar 15, 2012 Sale 153,173
EDRICK ALAN I Exec Vice Pres and CFO Mar 14, 2012 Sale 166,070
MEHRA AJAY Executive Vice President Mar 06, 2012 Sale 944,000
ALIABADI MANOOCHER M President/GM OSI Optoelectroni Mar 02, 2012 Sale 147,502
MEHRA AJAY Executive Vice President Mar 01, 2012 Sale 1,372,587
MEHRA AJAY Executive Vice President Jan 30, 2012 Option Exercise 372,027
SZE VICTOR S General Counsel Dec 30, 2011 Option Exercise 10,602
EDRICK ALAN I CFO & EVP Dec 30, 2011 Option Exercise 10,602
MEHRA AJAY Executive Vice President Dec 30, 2011 Option Exercise 10,602
SZE VICTOR S General Counsel Nov 11, 2011 Option Exercise 56,073
SZE VICTOR S General Counsel Nov 11, 2011 Option Exercise 41,797
EDRICK ALAN I CFO & EVP Nov 11, 2011 Option Exercise 221,557
EDRICK ALAN I CFO & EVP Nov 11, 2011 Option Exercise 165,230
CHOPRA DEEPAK President and CEO Nov 11, 2011 Option Exercise 350,726
CHOPRA DEEPAK President and CEO Nov 11, 2011 Option Exercise 261,558
EDRICK ALAN I CFO & EVP Jul 27, 2011 Option Exercise 79,678
MEHRA AJAY Executive Vice President Jul 05, 2011 Option Exercise 10,602
SZE VICTOR S General Counsel Jul 05, 2011 Option Exercise 10,602
EDRICK ALAN I CFO & EVP Jul 05, 2011 Option Exercise 10,602
ALIABADI MANOOCHER M President/GM OSI Optoelectroni Jun 21, 2011 Sale 26,145
CHOPRA DEEPAK President and CEO Jun 17, 2011 Option Exercise 101,081
EDRICK ALAN I CFO & EVP Jun 21, 2011 Sale 35,409
MEHRA AJAY Executive Vice President Jun 08, 2011 Sale 299,385
SZE VICTOR S General Counsel Jun 03, 2011 Option Exercise 234,736
ALIABADI MANOOCHER M President/GM OSI Optoelectroni May 11, 2011 Sale 15,626
ALIABADI MANOOCHER M President/GM OSI Optoelectroni May 03, 2011 Sale 8,370
ALIABADI MANOOCHER M President/GM OSI Optoelectroni Feb 09, 2011 Sale 17,835
CHOPRA DEEPAK President and CEO Feb 04, 2011 Sale 946,480
SZE VICTOR S General Counsel Feb 04, 2011 Option Exercise 89,414
CHOPRA DEEPAK President and CEO Jan 31, 2011 Sale 188,582
CHOPRA DEEPAK President and CEO Jan 31, 2011 Sale 187,952
SZE VICTOR S General Counsel Jan 03, 2011 Option Exercise 10,623
MEHRA AJAY Executive Vice President Jan 03, 2011 Option Exercise 10,623
EDRICK ALAN I CFO & EVP Jan 03, 2011 Option Exercise 10,623
EDRICK ALAN I CFO & EVP Dec 02, 2010 Option Exercise 71,960
LUSKIN MEYER/ Director Nov 10, 2010 Sale 131,082
LUSKIN MEYER/ Director Nov 09, 2010 Sale 3,661
LUSKIN MEYER/ Director Nov 09, 2010 Sale 3,661
LUSKIN MEYER/ Director Nov 10, 2010 Sale 204,729
CHOPRA DEEPAK President and CEO Nov 04, 2010 Sale 929,438
LUSKIN MEYER/ Director Nov 01, 2010 Option Exercise 370,600
LUSKIN MEYER/ Director Nov 01, 2010 Option Exercise 12,780,453
LUSKIN MEYER/ Director Nov 01, 2010 Option Exercise 12,409,853
LUSKIN MEYER/ Director Sep 21, 2010 Sale 241,080
LUSKIN MEYER/ Director Sep 20, 2010 Sale 240,916
ALIABADI MANOOCHER M President/GM OSI Optoelectroni Sep 08, 2010 Sale 39,370
MEHRA AJAY Executive Vice President Sep 08, 2010 Sale 41,975
MEHRA AJAY Executive Vice President Sep 02, 2010 Sale 118,034
SZE VICTOR S General Counsel Sep 02, 2010 Sale 38,040
ALIABADI MANOOCHER M President/GM OSI Optoelectroni Sep 02, 2010 Sale 58,733
CHOPRA DEEPAK President and CEO Sep 03, 2010 Sale 787,895
Bider Leslie E Jul 22, 2010 Option Exercise 245,700